<?xml version="1.0" encoding="UTF-8" standalone="no" ?>
<gpx xmlns="http://www.topografix.com/GPX/1/1" xmlns:xsi="http://www.w3.org/2001/XMLSchema-instance" xsi:schemaLocation="http://www.topografix.com/GPX/1/1 http://www.topografix.com/GPX/1/1/gpx.xsd" version="1.1" creator="VisuGPX - https://www.visugpx.com">
  <metadata>
    <name>83 - L - Roquebrune sur Argens</name>
    <desc><![CDATA[83 - L - Roquebrune sur Argens - 25 ponts - les Campons]]></desc>
  </metadata>
  <trk>
    <name><![CDATA[Roquebrune 25 ponts 2025-02-10-01]]></name>
    <trkseg>
      <trkpt lat="43.44019" lon="6.63424">
        <ele>21.5</ele>
        <time>2025-02-10T08:17:00Z</time>
      </trkpt>
      <trkpt lat="43.4402" lon="6.63424">
        <ele>21.5</ele>
        <time>2025-02-10T08:17:01Z</time>
      </trkpt>
      <trkpt lat="43.44027" lon="6.63429">
        <ele>49.2</ele>
        <time>2025-02-10T08:21:02Z</time>
      </trkpt>
      <trkpt lat="43.44018" lon="6.63435">
        <ele>49.7</ele>
        <time>2025-02-10T08:22:47Z</time>
      </trkpt>
      <trkpt lat="43.44009" lon="6.6344">
        <ele>49.5</ele>
        <time>2025-02-10T08:22:55Z</time>
      </trkpt>
      <trkpt lat="43.44006" lon="6.63428">
        <ele>50</ele>
        <time>2025-02-10T08:23:10Z</time>
      </trkpt>
      <trkpt lat="43.44002" lon="6.63416">
        <ele>50.6</ele>
        <time>2025-02-10T08:23:18Z</time>
      </trkpt>
      <trkpt lat="43.43994" lon="6.63408">
        <ele>51.3</ele>
        <time>2025-02-10T08:23:26Z</time>
      </trkpt>
      <trkpt lat="43.4399" lon="6.63398">
        <ele>51.7</ele>
        <time>2025-02-10T08:23:44Z</time>
      </trkpt>
      <trkpt lat="43.4398" lon="6.63395">
        <ele>52.3</ele>
        <time>2025-02-10T08:24:00Z</time>
      </trkpt>
      <trkpt lat="43.43975" lon="6.63385">
        <ele>53.4</ele>
        <time>2025-02-10T08:24:59Z</time>
      </trkpt>
      <trkpt lat="43.43969" lon="6.63375">
        <ele>54.3</ele>
        <time>2025-02-10T08:25:17Z</time>
      </trkpt>
      <trkpt lat="43.43959" lon="6.63371">
        <ele>55.5</ele>
        <time>2025-02-10T08:25:45Z</time>
      </trkpt>
      <trkpt lat="43.43951" lon="6.63366">
        <ele>57</ele>
        <time>2025-02-10T08:25:59Z</time>
      </trkpt>
      <trkpt lat="43.43944" lon="6.63357">
        <ele>58.4</ele>
        <time>2025-02-10T08:26:15Z</time>
      </trkpt>
      <trkpt lat="43.43937" lon="6.63348">
        <ele>60.2</ele>
        <time>2025-02-10T08:26:44Z</time>
      </trkpt>
      <trkpt lat="43.43931" lon="6.63339">
        <ele>60.8</ele>
        <time>2025-02-10T08:26:55Z</time>
      </trkpt>
      <trkpt lat="43.43924" lon="6.63331">
        <ele>61.9</ele>
        <time>2025-02-10T08:27:07Z</time>
      </trkpt>
      <trkpt lat="43.43916" lon="6.63325">
        <ele>62.6</ele>
        <time>2025-02-10T08:27:22Z</time>
      </trkpt>
      <trkpt lat="43.43907" lon="6.63329">
        <ele>63.5</ele>
        <time>2025-02-10T08:28:02Z</time>
      </trkpt>
      <trkpt lat="43.43899" lon="6.63336">
        <ele>64.6</ele>
        <time>2025-02-10T08:28:23Z</time>
      </trkpt>
      <trkpt lat="43.4389" lon="6.63341">
        <ele>66.2</ele>
        <time>2025-02-10T08:28:42Z</time>
      </trkpt>
      <trkpt lat="43.43881" lon="6.63344">
        <ele>67.6</ele>
        <time>2025-02-10T08:28:56Z</time>
      </trkpt>
      <trkpt lat="43.43874" lon="6.63351">
        <ele>69.3</ele>
        <time>2025-02-10T08:29:24Z</time>
      </trkpt>
      <trkpt lat="43.43865" lon="6.63353">
        <ele>70.8</ele>
        <time>2025-02-10T08:29:36Z</time>
      </trkpt>
      <trkpt lat="43.43856" lon="6.63353">
        <ele>73.1</ele>
        <time>2025-02-10T08:30:13Z</time>
      </trkpt>
      <trkpt lat="43.43848" lon="6.6336">
        <ele>71.7</ele>
        <time>2025-02-10T08:31:08Z</time>
      </trkpt>
      <trkpt lat="43.43842" lon="6.63369">
        <ele>73.3</ele>
        <time>2025-02-10T08:31:48Z</time>
      </trkpt>
      <trkpt lat="43.43834" lon="6.63372">
        <ele>74.4</ele>
        <time>2025-02-10T08:32:00Z</time>
      </trkpt>
      <trkpt lat="43.43824" lon="6.63375">
        <ele>75.2</ele>
        <time>2025-02-10T08:32:14Z</time>
      </trkpt>
      <trkpt lat="43.43816" lon="6.63371">
        <ele>76.6</ele>
        <time>2025-02-10T08:33:22Z</time>
      </trkpt>
      <trkpt lat="43.43806" lon="6.63373">
        <ele>78</ele>
        <time>2025-02-10T08:33:40Z</time>
      </trkpt>
      <trkpt lat="43.43799" lon="6.63381">
        <ele>78</ele>
        <time>2025-02-10T08:33:53Z</time>
      </trkpt>
      <trkpt lat="43.43803" lon="6.63393">
        <ele>79.3</ele>
        <time>2025-02-10T08:34:09Z</time>
      </trkpt>
      <trkpt lat="43.43805" lon="6.63406">
        <ele>80.3</ele>
        <time>2025-02-10T08:34:28Z</time>
      </trkpt>
      <trkpt lat="43.43802" lon="6.63419">
        <ele>81.1</ele>
        <time>2025-02-10T08:34:45Z</time>
      </trkpt>
      <trkpt lat="43.438" lon="6.63432">
        <ele>81.2</ele>
        <time>2025-02-10T08:34:55Z</time>
      </trkpt>
      <trkpt lat="43.43799" lon="6.63444">
        <ele>81.1</ele>
        <time>2025-02-10T08:35:06Z</time>
      </trkpt>
      <trkpt lat="43.43799" lon="6.63457">
        <ele>81.9</ele>
        <time>2025-02-10T08:35:19Z</time>
      </trkpt>
      <trkpt lat="43.438" lon="6.6347">
        <ele>83.1</ele>
        <time>2025-02-10T08:35:30Z</time>
      </trkpt>
      <trkpt lat="43.43798" lon="6.63482">
        <ele>84.1</ele>
        <time>2025-02-10T08:35:42Z</time>
      </trkpt>
      <trkpt lat="43.43793" lon="6.63493">
        <ele>85</ele>
        <time>2025-02-10T08:35:55Z</time>
      </trkpt>
      <trkpt lat="43.43789" lon="6.63504">
        <ele>85.8</ele>
        <time>2025-02-10T08:36:20Z</time>
      </trkpt>
      <trkpt lat="43.43785" lon="6.63516">
        <ele>86</ele>
        <time>2025-02-10T08:37:14Z</time>
      </trkpt>
      <trkpt lat="43.43776" lon="6.63521">
        <ele>86.2</ele>
        <time>2025-02-10T08:37:38Z</time>
      </trkpt>
      <trkpt lat="43.43769" lon="6.6353">
        <ele>87.1</ele>
        <time>2025-02-10T08:37:51Z</time>
      </trkpt>
      <trkpt lat="43.43761" lon="6.63535">
        <ele>88.2</ele>
        <time>2025-02-10T08:38:04Z</time>
      </trkpt>
      <trkpt lat="43.43752" lon="6.63534">
        <ele>88</ele>
        <time>2025-02-10T08:38:15Z</time>
      </trkpt>
      <trkpt lat="43.43743" lon="6.63535">
        <ele>87.6</ele>
        <time>2025-02-10T08:38:26Z</time>
      </trkpt>
      <trkpt lat="43.43737" lon="6.63545">
        <ele>87.4</ele>
        <time>2025-02-10T08:38:37Z</time>
      </trkpt>
      <trkpt lat="43.43736" lon="6.63559">
        <ele>88.1</ele>
        <time>2025-02-10T08:38:48Z</time>
      </trkpt>
      <trkpt lat="43.43732" lon="6.63571">
        <ele>88.8</ele>
        <time>2025-02-10T08:39:02Z</time>
      </trkpt>
      <trkpt lat="43.43727" lon="6.63582">
        <ele>89.2</ele>
        <time>2025-02-10T08:39:13Z</time>
      </trkpt>
      <trkpt lat="43.43724" lon="6.63594">
        <ele>89.1</ele>
        <time>2025-02-10T08:40:38Z</time>
      </trkpt>
      <trkpt lat="43.43718" lon="6.63604">
        <ele>88.6</ele>
        <time>2025-02-10T08:40:51Z</time>
      </trkpt>
      <trkpt lat="43.43711" lon="6.63612">
        <ele>88.6</ele>
        <time>2025-02-10T08:41:02Z</time>
      </trkpt>
      <trkpt lat="43.43705" lon="6.63622">
        <ele>88.5</ele>
        <time>2025-02-10T08:41:12Z</time>
      </trkpt>
      <trkpt lat="43.43698" lon="6.63631">
        <ele>88.8</ele>
        <time>2025-02-10T08:41:24Z</time>
      </trkpt>
      <trkpt lat="43.4369" lon="6.63638">
        <ele>88.7</ele>
        <time>2025-02-10T08:41:37Z</time>
      </trkpt>
      <trkpt lat="43.43681" lon="6.63641">
        <ele>89.2</ele>
        <time>2025-02-10T08:41:50Z</time>
      </trkpt>
      <trkpt lat="43.43672" lon="6.63642">
        <ele>90.2</ele>
        <time>2025-02-10T08:42:01Z</time>
      </trkpt>
      <trkpt lat="43.43662" lon="6.63645">
        <ele>90</ele>
        <time>2025-02-10T08:42:13Z</time>
      </trkpt>
      <trkpt lat="43.43653" lon="6.6364">
        <ele>90</ele>
        <time>2025-02-10T08:42:25Z</time>
      </trkpt>
      <trkpt lat="43.43645" lon="6.63636">
        <ele>90.8</ele>
        <time>2025-02-10T08:42:39Z</time>
      </trkpt>
      <trkpt lat="43.43636" lon="6.6363">
        <ele>90.8</ele>
        <time>2025-02-10T08:42:53Z</time>
      </trkpt>
      <trkpt lat="43.43628" lon="6.63624">
        <ele>90.9</ele>
        <time>2025-02-10T08:43:04Z</time>
      </trkpt>
      <trkpt lat="43.4362" lon="6.63618">
        <ele>90.7</ele>
        <time>2025-02-10T08:43:14Z</time>
      </trkpt>
      <trkpt lat="43.43611" lon="6.63623">
        <ele>90.9</ele>
        <time>2025-02-10T08:43:24Z</time>
      </trkpt>
      <trkpt lat="43.43603" lon="6.6363">
        <ele>91.3</ele>
        <time>2025-02-10T08:43:34Z</time>
      </trkpt>
      <trkpt lat="43.43597" lon="6.6364">
        <ele>91.7</ele>
        <time>2025-02-10T08:43:44Z</time>
      </trkpt>
      <trkpt lat="43.43587" lon="6.6364">
        <ele>92.1</ele>
        <time>2025-02-10T08:43:55Z</time>
      </trkpt>
      <trkpt lat="43.43581" lon="6.6363">
        <ele>92.3</ele>
        <time>2025-02-10T08:44:07Z</time>
      </trkpt>
      <trkpt lat="43.43574" lon="6.63622">
        <ele>92.1</ele>
        <time>2025-02-10T08:44:18Z</time>
      </trkpt>
      <trkpt lat="43.43564" lon="6.6362">
        <ele>92.4</ele>
        <time>2025-02-10T08:44:28Z</time>
      </trkpt>
      <trkpt lat="43.43555" lon="6.63616">
        <ele>93.3</ele>
        <time>2025-02-10T08:44:41Z</time>
      </trkpt>
      <trkpt lat="43.43551" lon="6.63605">
        <ele>93.5</ele>
        <time>2025-02-10T08:44:52Z</time>
      </trkpt>
      <trkpt lat="43.43544" lon="6.63595">
        <ele>93.5</ele>
        <time>2025-02-10T08:45:06Z</time>
      </trkpt>
      <trkpt lat="43.43538" lon="6.63585">
        <ele>93.7</ele>
        <time>2025-02-10T08:45:15Z</time>
      </trkpt>
      <trkpt lat="43.43532" lon="6.63575">
        <ele>93.6</ele>
        <time>2025-02-10T08:45:27Z</time>
      </trkpt>
      <trkpt lat="43.43528" lon="6.63563">
        <ele>93.7</ele>
        <time>2025-02-10T08:45:38Z</time>
      </trkpt>
      <trkpt lat="43.43521" lon="6.63555">
        <ele>93.4</ele>
        <time>2025-02-10T08:45:54Z</time>
      </trkpt>
      <trkpt lat="43.43524" lon="6.63543">
        <ele>93.2</ele>
        <time>2025-02-10T08:47:41Z</time>
      </trkpt>
      <trkpt lat="43.4352" lon="6.63531">
        <ele>92.9</ele>
        <time>2025-02-10T08:47:54Z</time>
      </trkpt>
      <trkpt lat="43.43511" lon="6.63526">
        <ele>93.4</ele>
        <time>2025-02-10T08:48:04Z</time>
      </trkpt>
      <trkpt lat="43.43502" lon="6.63524">
        <ele>93.9</ele>
        <time>2025-02-10T08:48:15Z</time>
      </trkpt>
      <trkpt lat="43.43494" lon="6.63517">
        <ele>94.2</ele>
        <time>2025-02-10T08:48:27Z</time>
      </trkpt>
      <trkpt lat="43.43488" lon="6.63507">
        <ele>95.1</ele>
        <time>2025-02-10T08:48:39Z</time>
      </trkpt>
      <trkpt lat="43.43483" lon="6.63495">
        <ele>94.3</ele>
        <time>2025-02-10T08:48:51Z</time>
      </trkpt>
      <trkpt lat="43.43475" lon="6.6349">
        <ele>94.7</ele>
        <time>2025-02-10T08:49:03Z</time>
      </trkpt>
      <trkpt lat="43.4347" lon="6.63479">
        <ele>95.2</ele>
        <time>2025-02-10T08:49:37Z</time>
      </trkpt>
      <trkpt lat="43.43465" lon="6.63469">
        <ele>94.7</ele>
        <time>2025-02-10T08:51:48Z</time>
      </trkpt>
      <trkpt lat="43.43459" lon="6.6346">
        <ele>94.4</ele>
        <time>2025-02-10T08:52:48Z</time>
      </trkpt>
      <trkpt lat="43.43451" lon="6.63452">
        <ele>94.2</ele>
        <time>2025-02-10T08:53:00Z</time>
      </trkpt>
      <trkpt lat="43.43442" lon="6.63456">
        <ele>92.2</ele>
        <time>2025-02-10T08:53:14Z</time>
      </trkpt>
      <trkpt lat="43.43433" lon="6.63453">
        <ele>91.9</ele>
        <time>2025-02-10T08:53:53Z</time>
      </trkpt>
      <trkpt lat="43.43442" lon="6.63449">
        <ele>91.9</ele>
        <time>2025-02-10T08:54:45Z</time>
      </trkpt>
      <trkpt lat="43.43439" lon="6.63437">
        <ele>91.9</ele>
        <time>2025-02-10T08:56:05Z</time>
      </trkpt>
      <trkpt lat="43.43441" lon="6.63425">
        <ele>91.9</ele>
        <time>2025-02-10T09:00:43Z</time>
      </trkpt>
      <trkpt lat="43.43436" lon="6.63414">
        <ele>91.7</ele>
        <time>2025-02-10T09:01:03Z</time>
      </trkpt>
      <trkpt lat="43.43427" lon="6.63408">
        <ele>92.7</ele>
        <time>2025-02-10T09:06:41Z</time>
      </trkpt>
      <trkpt lat="43.43421" lon="6.63398">
        <ele>92.8</ele>
        <time>2025-02-10T09:06:53Z</time>
      </trkpt>
      <trkpt lat="43.43413" lon="6.6339">
        <ele>94.3</ele>
        <time>2025-02-10T09:08:18Z</time>
      </trkpt>
      <trkpt lat="43.43405" lon="6.63392">
        <ele>94.9</ele>
        <time>2025-02-10T09:08:28Z</time>
      </trkpt>
      <trkpt lat="43.43395" lon="6.63392">
        <ele>95.7</ele>
        <time>2025-02-10T09:08:39Z</time>
      </trkpt>
      <trkpt lat="43.43386" lon="6.63394">
        <ele>96.7</ele>
        <time>2025-02-10T09:08:50Z</time>
      </trkpt>
      <trkpt lat="43.43383" lon="6.63383">
        <ele>98.1</ele>
        <time>2025-02-10T09:10:31Z</time>
      </trkpt>
      <trkpt lat="43.4338" lon="6.6337">
        <ele>96.4</ele>
        <time>2025-02-10T09:11:09Z</time>
      </trkpt>
      <trkpt lat="43.43382" lon="6.63358">
        <ele>95.7</ele>
        <time>2025-02-10T09:11:34Z</time>
      </trkpt>
      <trkpt lat="43.43382" lon="6.63346">
        <ele>94.7</ele>
        <time>2025-02-10T09:11:45Z</time>
      </trkpt>
      <trkpt lat="43.43382" lon="6.63333">
        <ele>93.8</ele>
        <time>2025-02-10T09:11:55Z</time>
      </trkpt>
      <trkpt lat="43.43382" lon="6.6332">
        <ele>92.6</ele>
        <time>2025-02-10T09:12:05Z</time>
      </trkpt>
      <trkpt lat="43.43382" lon="6.63307">
        <ele>91.4</ele>
        <time>2025-02-10T09:12:15Z</time>
      </trkpt>
      <trkpt lat="43.43379" lon="6.63295">
        <ele>90.4</ele>
        <time>2025-02-10T09:12:27Z</time>
      </trkpt>
      <trkpt lat="43.43376" lon="6.63282">
        <ele>89</ele>
        <time>2025-02-10T09:12:41Z</time>
      </trkpt>
      <trkpt lat="43.43375" lon="6.63269">
        <ele>88.6</ele>
        <time>2025-02-10T09:12:55Z</time>
      </trkpt>
      <trkpt lat="43.43376" lon="6.63256">
        <ele>88.6</ele>
        <time>2025-02-10T09:13:07Z</time>
      </trkpt>
      <trkpt lat="43.43378" lon="6.63244">
        <ele>88.5</ele>
        <time>2025-02-10T09:13:19Z</time>
      </trkpt>
      <trkpt lat="43.43379" lon="6.63231">
        <ele>88</ele>
        <time>2025-02-10T09:13:31Z</time>
      </trkpt>
      <trkpt lat="43.4338" lon="6.63218">
        <ele>87.3</ele>
        <time>2025-02-10T09:13:41Z</time>
      </trkpt>
      <trkpt lat="43.43382" lon="6.63205">
        <ele>86.3</ele>
        <time>2025-02-10T09:13:52Z</time>
      </trkpt>
      <trkpt lat="43.43382" lon="6.63192">
        <ele>86.1</ele>
        <time>2025-02-10T09:14:04Z</time>
      </trkpt>
      <trkpt lat="43.43383" lon="6.6318">
        <ele>85.5</ele>
        <time>2025-02-10T09:14:15Z</time>
      </trkpt>
      <trkpt lat="43.43384" lon="6.63167">
        <ele>85.4</ele>
        <time>2025-02-10T09:14:26Z</time>
      </trkpt>
      <trkpt lat="43.4338" lon="6.63154">
        <ele>84.5</ele>
        <time>2025-02-10T09:14:38Z</time>
      </trkpt>
      <trkpt lat="43.43382" lon="6.63141">
        <ele>83.1</ele>
        <time>2025-02-10T09:14:53Z</time>
      </trkpt>
      <trkpt lat="43.43384" lon="6.63128">
        <ele>81.8</ele>
        <time>2025-02-10T09:15:12Z</time>
      </trkpt>
      <trkpt lat="43.43387" lon="6.63116">
        <ele>80.5</ele>
        <time>2025-02-10T09:15:26Z</time>
      </trkpt>
      <trkpt lat="43.4339" lon="6.63104">
        <ele>79.5</ele>
        <time>2025-02-10T09:15:44Z</time>
      </trkpt>
      <trkpt lat="43.4339" lon="6.63091">
        <ele>79.1</ele>
        <time>2025-02-10T09:15:59Z</time>
      </trkpt>
      <trkpt lat="43.4339" lon="6.63078">
        <ele>78.4</ele>
        <time>2025-02-10T09:16:13Z</time>
      </trkpt>
      <trkpt lat="43.43392" lon="6.63065">
        <ele>77.5</ele>
        <time>2025-02-10T09:16:24Z</time>
      </trkpt>
      <trkpt lat="43.43391" lon="6.63052">
        <ele>76.7</ele>
        <time>2025-02-10T09:16:38Z</time>
      </trkpt>
      <trkpt lat="43.43393" lon="6.6304">
        <ele>75.9</ele>
        <time>2025-02-10T09:16:52Z</time>
      </trkpt>
      <trkpt lat="43.43391" lon="6.63027">
        <ele>74.1</ele>
        <time>2025-02-10T09:17:14Z</time>
      </trkpt>
      <trkpt lat="43.43389" lon="6.63015">
        <ele>73.2</ele>
        <time>2025-02-10T09:17:26Z</time>
      </trkpt>
      <trkpt lat="43.43383" lon="6.63005">
        <ele>70.3</ele>
        <time>2025-02-10T09:17:56Z</time>
      </trkpt>
      <trkpt lat="43.43381" lon="6.62993">
        <ele>67.1</ele>
        <time>2025-02-10T09:19:14Z</time>
      </trkpt>
      <trkpt lat="43.4338" lon="6.6298">
        <ele>64.2</ele>
        <time>2025-02-10T09:19:55Z</time>
      </trkpt>
      <trkpt lat="43.43381" lon="6.62967">
        <ele>62.6</ele>
        <time>2025-02-10T09:21:12Z</time>
      </trkpt>
      <trkpt lat="43.43375" lon="6.62958">
        <ele>57.7</ele>
        <time>2025-02-10T09:22:04Z</time>
      </trkpt>
      <trkpt lat="43.43379" lon="6.62946">
        <ele>56.1</ele>
        <time>2025-02-10T09:22:33Z</time>
      </trkpt>
      <trkpt lat="43.43379" lon="6.62933">
        <ele>51.8</ele>
        <time>2025-02-10T09:23:28Z</time>
      </trkpt>
      <trkpt lat="43.4337" lon="6.62929">
        <ele>49.1</ele>
        <time>2025-02-10T09:24:13Z</time>
      </trkpt>
      <trkpt lat="43.43366" lon="6.62917">
        <ele>46.1</ele>
        <time>2025-02-10T09:24:35Z</time>
      </trkpt>
      <trkpt lat="43.43366" lon="6.62904">
        <ele>44.8</ele>
        <time>2025-02-10T09:24:47Z</time>
      </trkpt>
      <trkpt lat="43.43371" lon="6.62893">
        <ele>44.4</ele>
        <time>2025-02-10T09:26:32Z</time>
      </trkpt>
      <trkpt lat="43.43379" lon="6.62886">
        <ele>45.3</ele>
        <time>2025-02-10T09:28:22Z</time>
      </trkpt>
      <trkpt lat="43.43384" lon="6.62875">
        <ele>45.7</ele>
        <time>2025-02-10T09:28:36Z</time>
      </trkpt>
      <trkpt lat="43.43383" lon="6.62863">
        <ele>47.2</ele>
        <time>2025-02-10T09:29:19Z</time>
      </trkpt>
      <trkpt lat="43.4338" lon="6.62851">
        <ele>48.6</ele>
        <time>2025-02-10T09:29:36Z</time>
      </trkpt>
      <trkpt lat="43.43378" lon="6.62838">
        <ele>51.4</ele>
        <time>2025-02-10T09:30:15Z</time>
      </trkpt>
      <trkpt lat="43.43374" lon="6.62826">
        <ele>53.7</ele>
        <time>2025-02-10T09:30:46Z</time>
      </trkpt>
      <trkpt lat="43.43368" lon="6.62817">
        <ele>55.4</ele>
        <time>2025-02-10T09:31:06Z</time>
      </trkpt>
      <trkpt lat="43.43363" lon="6.62807">
        <ele>57</ele>
        <time>2025-02-10T09:31:24Z</time>
      </trkpt>
      <trkpt lat="43.43358" lon="6.62796">
        <ele>58.9</ele>
        <time>2025-02-10T09:31:44Z</time>
      </trkpt>
      <trkpt lat="43.43357" lon="6.62783">
        <ele>61.3</ele>
        <time>2025-02-10T09:32:06Z</time>
      </trkpt>
      <trkpt lat="43.43356" lon="6.62771">
        <ele>63.8</ele>
        <time>2025-02-10T09:32:29Z</time>
      </trkpt>
      <trkpt lat="43.43355" lon="6.62758">
        <ele>65.8</ele>
        <time>2025-02-10T09:32:53Z</time>
      </trkpt>
      <trkpt lat="43.43351" lon="6.62747">
        <ele>66.9</ele>
        <time>2025-02-10T09:33:10Z</time>
      </trkpt>
      <trkpt lat="43.43348" lon="6.62735">
        <ele>68.8</ele>
        <time>2025-02-10T09:33:31Z</time>
      </trkpt>
      <trkpt lat="43.4334" lon="6.62728">
        <ele>70.4</ele>
        <time>2025-02-10T09:33:44Z</time>
      </trkpt>
      <trkpt lat="43.43336" lon="6.62717">
        <ele>71.6</ele>
        <time>2025-02-10T09:33:57Z</time>
      </trkpt>
      <trkpt lat="43.43337" lon="6.62704">
        <ele>73.7</ele>
        <time>2025-02-10T09:34:18Z</time>
      </trkpt>
      <trkpt lat="43.43339" lon="6.62691">
        <ele>75.3</ele>
        <time>2025-02-10T09:34:38Z</time>
      </trkpt>
      <trkpt lat="43.43336" lon="6.62679">
        <ele>76.3</ele>
        <time>2025-02-10T09:34:58Z</time>
      </trkpt>
      <trkpt lat="43.43331" lon="6.62668">
        <ele>76.9</ele>
        <time>2025-02-10T09:38:44Z</time>
      </trkpt>
      <trkpt lat="43.43324" lon="6.62659">
        <ele>76.7</ele>
        <time>2025-02-10T09:38:55Z</time>
      </trkpt>
      <trkpt lat="43.43317" lon="6.62651">
        <ele>77.1</ele>
        <time>2025-02-10T09:39:06Z</time>
      </trkpt>
      <trkpt lat="43.43312" lon="6.6264">
        <ele>78</ele>
        <time>2025-02-10T09:39:20Z</time>
      </trkpt>
      <trkpt lat="43.4331" lon="6.62627">
        <ele>79.3</ele>
        <time>2025-02-10T09:39:31Z</time>
      </trkpt>
      <trkpt lat="43.43304" lon="6.62618">
        <ele>80.8</ele>
        <time>2025-02-10T09:39:42Z</time>
      </trkpt>
      <trkpt lat="43.43302" lon="6.62606">
        <ele>82</ele>
        <time>2025-02-10T09:40:08Z</time>
      </trkpt>
      <trkpt lat="43.43294" lon="6.62598">
        <ele>82.9</ele>
        <time>2025-02-10T09:40:22Z</time>
      </trkpt>
      <trkpt lat="43.43284" lon="6.62598">
        <ele>84.7</ele>
        <time>2025-02-10T09:40:56Z</time>
      </trkpt>
      <trkpt lat="43.43275" lon="6.62597">
        <ele>87</ele>
        <time>2025-02-10T09:41:13Z</time>
      </trkpt>
      <trkpt lat="43.43267" lon="6.62606">
        <ele>89.8</ele>
        <time>2025-02-10T09:41:40Z</time>
      </trkpt>
      <trkpt lat="43.43261" lon="6.62614">
        <ele>91.1</ele>
        <time>2025-02-10T09:42:06Z</time>
      </trkpt>
      <trkpt lat="43.43252" lon="6.62616">
        <ele>93.1</ele>
        <time>2025-02-10T09:43:07Z</time>
      </trkpt>
      <trkpt lat="43.43243" lon="6.62612">
        <ele>93.9</ele>
        <time>2025-02-10T09:43:27Z</time>
      </trkpt>
      <trkpt lat="43.43235" lon="6.62604">
        <ele>95.2</ele>
        <time>2025-02-10T09:43:39Z</time>
      </trkpt>
      <trkpt lat="43.43231" lon="6.62593">
        <ele>96</ele>
        <time>2025-02-10T09:44:18Z</time>
      </trkpt>
      <trkpt lat="43.43226" lon="6.62582">
        <ele>96.3</ele>
        <time>2025-02-10T09:44:30Z</time>
      </trkpt>
      <trkpt lat="43.43221" lon="6.62571">
        <ele>96.8</ele>
        <time>2025-02-10T09:44:41Z</time>
      </trkpt>
      <trkpt lat="43.43215" lon="6.62561">
        <ele>97.4</ele>
        <time>2025-02-10T09:44:52Z</time>
      </trkpt>
      <trkpt lat="43.43215" lon="6.62548">
        <ele>98.1</ele>
        <time>2025-02-10T09:45:05Z</time>
      </trkpt>
      <trkpt lat="43.43218" lon="6.62536">
        <ele>99</ele>
        <time>2025-02-10T09:45:18Z</time>
      </trkpt>
      <trkpt lat="43.43217" lon="6.62523">
        <ele>99.4</ele>
        <time>2025-02-10T09:45:30Z</time>
      </trkpt>
      <trkpt lat="43.4322" lon="6.6251">
        <ele>99.9</ele>
        <time>2025-02-10T09:45:41Z</time>
      </trkpt>
      <trkpt lat="43.43223" lon="6.62498">
        <ele>101</ele>
        <time>2025-02-10T09:45:57Z</time>
      </trkpt>
      <trkpt lat="43.43222" lon="6.62485">
        <ele>102.6</ele>
        <time>2025-02-10T09:46:12Z</time>
      </trkpt>
      <trkpt lat="43.43215" lon="6.62476">
        <ele>103.7</ele>
        <time>2025-02-10T09:48:03Z</time>
      </trkpt>
      <trkpt lat="43.43206" lon="6.62474">
        <ele>103.8</ele>
        <time>2025-02-10T09:48:17Z</time>
      </trkpt>
      <trkpt lat="43.43198" lon="6.62471">
        <ele>104.6</ele>
        <time>2025-02-10T09:48:44Z</time>
      </trkpt>
      <trkpt lat="43.43188" lon="6.62473">
        <ele>104.8</ele>
        <time>2025-02-10T09:48:54Z</time>
      </trkpt>
      <trkpt lat="43.43178" lon="6.62474">
        <ele>105.4</ele>
        <time>2025-02-10T09:49:03Z</time>
      </trkpt>
      <trkpt lat="43.43169" lon="6.62473">
        <ele>105.5</ele>
        <time>2025-02-10T09:49:10Z</time>
      </trkpt>
      <trkpt lat="43.4316" lon="6.62467">
        <ele>105.9</ele>
        <time>2025-02-10T09:49:22Z</time>
      </trkpt>
      <trkpt lat="43.43152" lon="6.6246">
        <ele>106.3</ele>
        <time>2025-02-10T09:49:35Z</time>
      </trkpt>
      <trkpt lat="43.43143" lon="6.62453">
        <ele>107</ele>
        <time>2025-02-10T09:49:48Z</time>
      </trkpt>
      <trkpt lat="43.43136" lon="6.62445">
        <ele>107.6</ele>
        <time>2025-02-10T09:49:58Z</time>
      </trkpt>
      <trkpt lat="43.43131" lon="6.62434">
        <ele>107.9</ele>
        <time>2025-02-10T09:50:07Z</time>
      </trkpt>
      <trkpt lat="43.43128" lon="6.62422">
        <ele>109.3</ele>
        <time>2025-02-10T09:50:19Z</time>
      </trkpt>
      <trkpt lat="43.4312" lon="6.62416">
        <ele>110.6</ele>
        <time>2025-02-10T09:50:32Z</time>
      </trkpt>
      <trkpt lat="43.43111" lon="6.62412">
        <ele>112.1</ele>
        <time>2025-02-10T09:50:47Z</time>
      </trkpt>
      <trkpt lat="43.43101" lon="6.62409">
        <ele>113.2</ele>
        <time>2025-02-10T09:50:58Z</time>
      </trkpt>
      <trkpt lat="43.43092" lon="6.62409">
        <ele>114</ele>
        <time>2025-02-10T09:51:08Z</time>
      </trkpt>
      <trkpt lat="43.43083" lon="6.62407">
        <ele>114.9</ele>
        <time>2025-02-10T09:51:36Z</time>
      </trkpt>
      <trkpt lat="43.43073" lon="6.62407">
        <ele>115.1</ele>
        <time>2025-02-10T09:51:51Z</time>
      </trkpt>
      <trkpt lat="43.43064" lon="6.62405">
        <ele>115.6</ele>
        <time>2025-02-10T09:52:02Z</time>
      </trkpt>
      <trkpt lat="43.43054" lon="6.62405">
        <ele>115.8</ele>
        <time>2025-02-10T09:52:15Z</time>
      </trkpt>
      <trkpt lat="43.43045" lon="6.624">
        <ele>116.3</ele>
        <time>2025-02-10T09:52:26Z</time>
      </trkpt>
      <trkpt lat="43.43037" lon="6.62395">
        <ele>116.5</ele>
        <time>2025-02-10T09:52:37Z</time>
      </trkpt>
      <trkpt lat="43.43028" lon="6.6239">
        <ele>116.8</ele>
        <time>2025-02-10T09:52:48Z</time>
      </trkpt>
      <trkpt lat="43.43018" lon="6.62388">
        <ele>117.2</ele>
        <time>2025-02-10T09:52:58Z</time>
      </trkpt>
      <trkpt lat="43.43009" lon="6.62387">
        <ele>118.1</ele>
        <time>2025-02-10T09:53:10Z</time>
      </trkpt>
      <trkpt lat="43.43" lon="6.62387">
        <ele>119.1</ele>
        <time>2025-02-10T09:53:31Z</time>
      </trkpt>
      <trkpt lat="43.42991" lon="6.62385">
        <ele>119.7</ele>
        <time>2025-02-10T09:53:41Z</time>
      </trkpt>
      <trkpt lat="43.42982" lon="6.62381">
        <ele>120.5</ele>
        <time>2025-02-10T09:53:52Z</time>
      </trkpt>
      <trkpt lat="43.42973" lon="6.62378">
        <ele>120.8</ele>
        <time>2025-02-10T09:54:05Z</time>
      </trkpt>
      <trkpt lat="43.42964" lon="6.62377">
        <ele>120.9</ele>
        <time>2025-02-10T09:54:15Z</time>
      </trkpt>
      <trkpt lat="43.42955" lon="6.62374">
        <ele>121.4</ele>
        <time>2025-02-10T09:54:27Z</time>
      </trkpt>
      <trkpt lat="43.42946" lon="6.62369">
        <ele>121.5</ele>
        <time>2025-02-10T09:54:38Z</time>
      </trkpt>
      <trkpt lat="43.42938" lon="6.62362">
        <ele>121.8</ele>
        <time>2025-02-10T09:54:50Z</time>
      </trkpt>
      <trkpt lat="43.42931" lon="6.62353">
        <ele>122.2</ele>
        <time>2025-02-10T09:55:01Z</time>
      </trkpt>
      <trkpt lat="43.42923" lon="6.62345">
        <ele>122.5</ele>
        <time>2025-02-10T09:55:14Z</time>
      </trkpt>
      <trkpt lat="43.42916" lon="6.62338">
        <ele>123.3</ele>
        <time>2025-02-10T09:55:27Z</time>
      </trkpt>
      <trkpt lat="43.42907" lon="6.62331">
        <ele>124.4</ele>
        <time>2025-02-10T09:55:38Z</time>
      </trkpt>
      <trkpt lat="43.42901" lon="6.62322">
        <ele>124.4</ele>
        <time>2025-02-10T09:55:51Z</time>
      </trkpt>
      <trkpt lat="43.42894" lon="6.62313">
        <ele>124.8</ele>
        <time>2025-02-10T09:56:01Z</time>
      </trkpt>
      <trkpt lat="43.42887" lon="6.62306">
        <ele>125.1</ele>
        <time>2025-02-10T09:56:13Z</time>
      </trkpt>
      <trkpt lat="43.42879" lon="6.62299">
        <ele>125.5</ele>
        <time>2025-02-10T09:56:24Z</time>
      </trkpt>
      <trkpt lat="43.4287" lon="6.62293">
        <ele>126</ele>
        <time>2025-02-10T09:56:34Z</time>
      </trkpt>
      <trkpt lat="43.42861" lon="6.62288">
        <ele>126.4</ele>
        <time>2025-02-10T09:56:43Z</time>
      </trkpt>
      <trkpt lat="43.42853" lon="6.62284">
        <ele>127.4</ele>
        <time>2025-02-10T09:56:59Z</time>
      </trkpt>
      <trkpt lat="43.42844" lon="6.62278">
        <ele>127.8</ele>
        <time>2025-02-10T09:57:15Z</time>
      </trkpt>
      <trkpt lat="43.42837" lon="6.6227">
        <ele>128</ele>
        <time>2025-02-10T09:57:28Z</time>
      </trkpt>
      <trkpt lat="43.42828" lon="6.62263">
        <ele>128.4</ele>
        <time>2025-02-10T09:57:38Z</time>
      </trkpt>
      <trkpt lat="43.42822" lon="6.62255">
        <ele>128.7</ele>
        <time>2025-02-10T09:57:56Z</time>
      </trkpt>
      <trkpt lat="43.42813" lon="6.62251">
        <ele>128.9</ele>
        <time>2025-02-10T09:58:12Z</time>
      </trkpt>
      <trkpt lat="43.42805" lon="6.62245">
        <ele>129.7</ele>
        <time>2025-02-10T09:58:24Z</time>
      </trkpt>
      <trkpt lat="43.42797" lon="6.62237">
        <ele>129.5</ele>
        <time>2025-02-10T09:58:35Z</time>
      </trkpt>
      <trkpt lat="43.42788" lon="6.6223">
        <ele>129.4</ele>
        <time>2025-02-10T09:58:46Z</time>
      </trkpt>
      <trkpt lat="43.4278" lon="6.62224">
        <ele>129</ele>
        <time>2025-02-10T09:58:59Z</time>
      </trkpt>
      <trkpt lat="43.42771" lon="6.62218">
        <ele>128.9</ele>
        <time>2025-02-10T09:59:53Z</time>
      </trkpt>
      <trkpt lat="43.42763" lon="6.62213">
        <ele>129.3</ele>
        <time>2025-02-10T10:00:42Z</time>
      </trkpt>
      <trkpt lat="43.42755" lon="6.62206">
        <ele>129.3</ele>
        <time>2025-02-10T10:01:17Z</time>
      </trkpt>
      <trkpt lat="43.42746" lon="6.62199">
        <ele>129.3</ele>
        <time>2025-02-10T10:01:28Z</time>
      </trkpt>
      <trkpt lat="43.42738" lon="6.62194">
        <ele>129.7</ele>
        <time>2025-02-10T10:01:38Z</time>
      </trkpt>
      <trkpt lat="43.4273" lon="6.62189">
        <ele>130.3</ele>
        <time>2025-02-10T10:01:49Z</time>
      </trkpt>
      <trkpt lat="43.42721" lon="6.62184">
        <ele>131</ele>
        <time>2025-02-10T10:02:15Z</time>
      </trkpt>
      <trkpt lat="43.42711" lon="6.62181">
        <ele>131.7</ele>
        <time>2025-02-10T10:02:27Z</time>
      </trkpt>
      <trkpt lat="43.42702" lon="6.62179">
        <ele>131.7</ele>
        <time>2025-02-10T10:02:38Z</time>
      </trkpt>
      <trkpt lat="43.42693" lon="6.62175">
        <ele>131.5</ele>
        <time>2025-02-10T10:02:49Z</time>
      </trkpt>
      <trkpt lat="43.42684" lon="6.6217">
        <ele>131.5</ele>
        <time>2025-02-10T10:03:01Z</time>
      </trkpt>
      <trkpt lat="43.42675" lon="6.62167">
        <ele>131.4</ele>
        <time>2025-02-10T10:03:13Z</time>
      </trkpt>
      <trkpt lat="43.42668" lon="6.62159">
        <ele>131.3</ele>
        <time>2025-02-10T10:03:23Z</time>
      </trkpt>
      <trkpt lat="43.42664" lon="6.62146">
        <ele>131.4</ele>
        <time>2025-02-10T10:03:34Z</time>
      </trkpt>
      <trkpt lat="43.42657" lon="6.62136">
        <ele>131.8</ele>
        <time>2025-02-10T10:03:44Z</time>
      </trkpt>
      <trkpt lat="43.42651" lon="6.62127">
        <ele>132.5</ele>
        <time>2025-02-10T10:03:53Z</time>
      </trkpt>
      <trkpt lat="43.42643" lon="6.62121">
        <ele>132.4</ele>
        <time>2025-02-10T10:04:04Z</time>
      </trkpt>
      <trkpt lat="43.42634" lon="6.62116">
        <ele>131.8</ele>
        <time>2025-02-10T10:04:15Z</time>
      </trkpt>
      <trkpt lat="43.42625" lon="6.62112">
        <ele>131.4</ele>
        <time>2025-02-10T10:05:14Z</time>
      </trkpt>
      <trkpt lat="43.42616" lon="6.62111">
        <ele>131.2</ele>
        <time>2025-02-10T10:05:34Z</time>
      </trkpt>
      <trkpt lat="43.42606" lon="6.62111">
        <ele>131.2</ele>
        <time>2025-02-10T10:05:46Z</time>
      </trkpt>
      <trkpt lat="43.42598" lon="6.62109">
        <ele>130.9</ele>
        <time>2025-02-10T10:05:57Z</time>
      </trkpt>
      <trkpt lat="43.42589" lon="6.62102">
        <ele>130.5</ele>
        <time>2025-02-10T10:06:24Z</time>
      </trkpt>
      <trkpt lat="43.42579" lon="6.62098">
        <ele>130.1</ele>
        <time>2025-02-10T10:06:33Z</time>
      </trkpt>
      <trkpt lat="43.4257" lon="6.62099">
        <ele>130.4</ele>
        <time>2025-02-10T10:06:43Z</time>
      </trkpt>
      <trkpt lat="43.42561" lon="6.62098">
        <ele>131.2</ele>
        <time>2025-02-10T10:06:53Z</time>
      </trkpt>
      <trkpt lat="43.42551" lon="6.62099">
        <ele>132.2</ele>
        <time>2025-02-10T10:07:34Z</time>
      </trkpt>
      <trkpt lat="43.42543" lon="6.62104">
        <ele>131.7</ele>
        <time>2025-02-10T10:07:42Z</time>
      </trkpt>
      <trkpt lat="43.42534" lon="6.62106">
        <ele>130.9</ele>
        <time>2025-02-10T10:07:54Z</time>
      </trkpt>
      <trkpt lat="43.42524" lon="6.62105">
        <ele>130.3</ele>
        <time>2025-02-10T10:08:02Z</time>
      </trkpt>
      <trkpt lat="43.42515" lon="6.62103">
        <ele>129.7</ele>
        <time>2025-02-10T10:08:10Z</time>
      </trkpt>
      <trkpt lat="43.42505" lon="6.621">
        <ele>129.4</ele>
        <time>2025-02-10T10:08:19Z</time>
      </trkpt>
      <trkpt lat="43.42496" lon="6.62096">
        <ele>129.2</ele>
        <time>2025-02-10T10:08:27Z</time>
      </trkpt>
      <trkpt lat="43.42488" lon="6.62091">
        <ele>129</ele>
        <time>2025-02-10T10:08:35Z</time>
      </trkpt>
      <trkpt lat="43.4248" lon="6.62084">
        <ele>128.8</ele>
        <time>2025-02-10T10:08:43Z</time>
      </trkpt>
      <trkpt lat="43.42472" lon="6.62076">
        <ele>129.2</ele>
        <time>2025-02-10T10:08:54Z</time>
      </trkpt>
      <trkpt lat="43.42465" lon="6.62067">
        <ele>129.4</ele>
        <time>2025-02-10T10:09:03Z</time>
      </trkpt>
      <trkpt lat="43.42459" lon="6.62056">
        <ele>129.8</ele>
        <time>2025-02-10T10:09:14Z</time>
      </trkpt>
      <trkpt lat="43.42454" lon="6.62045">
        <ele>130.3</ele>
        <time>2025-02-10T10:09:23Z</time>
      </trkpt>
      <trkpt lat="43.4245" lon="6.62034">
        <ele>130.8</ele>
        <time>2025-02-10T10:09:32Z</time>
      </trkpt>
      <trkpt lat="43.42453" lon="6.62046">
        <ele>131</ele>
        <time>2025-02-10T10:10:14Z</time>
      </trkpt>
      <trkpt lat="43.4245" lon="6.62035">
        <ele>131.1</ele>
        <time>2025-02-10T10:11:18Z</time>
      </trkpt>
      <trkpt lat="43.42442" lon="6.62028">
        <ele>130.9</ele>
        <time>2025-02-10T10:11:32Z</time>
      </trkpt>
      <trkpt lat="43.42433" lon="6.62023">
        <ele>130.7</ele>
        <time>2025-02-10T10:11:58Z</time>
      </trkpt>
      <trkpt lat="43.42426" lon="6.62015">
        <ele>131.4</ele>
        <time>2025-02-10T10:12:39Z</time>
      </trkpt>
      <trkpt lat="43.42417" lon="6.62011">
        <ele>132</ele>
        <time>2025-02-10T10:13:12Z</time>
      </trkpt>
      <trkpt lat="43.42409" lon="6.62004">
        <ele>132.7</ele>
        <time>2025-02-10T10:13:24Z</time>
      </trkpt>
      <trkpt lat="43.424" lon="6.62002">
        <ele>132.8</ele>
        <time>2025-02-10T10:13:45Z</time>
      </trkpt>
      <trkpt lat="43.42391" lon="6.62001">
        <ele>133.8</ele>
        <time>2025-02-10T10:14:02Z</time>
      </trkpt>
      <trkpt lat="43.42382" lon="6.62006">
        <ele>134.7</ele>
        <time>2025-02-10T10:16:03Z</time>
      </trkpt>
      <trkpt lat="43.42373" lon="6.62009">
        <ele>135</ele>
        <time>2025-02-10T10:16:12Z</time>
      </trkpt>
      <trkpt lat="43.42365" lon="6.62014">
        <ele>135.4</ele>
        <time>2025-02-10T10:16:21Z</time>
      </trkpt>
      <trkpt lat="43.42357" lon="6.62022">
        <ele>135.5</ele>
        <time>2025-02-10T10:16:30Z</time>
      </trkpt>
      <trkpt lat="43.42349" lon="6.62028">
        <ele>135.7</ele>
        <time>2025-02-10T10:16:38Z</time>
      </trkpt>
      <trkpt lat="43.4234" lon="6.62035">
        <ele>136.2</ele>
        <time>2025-02-10T10:16:50Z</time>
      </trkpt>
      <trkpt lat="43.42331" lon="6.62039">
        <ele>136.6</ele>
        <time>2025-02-10T10:16:58Z</time>
      </trkpt>
      <trkpt lat="43.42322" lon="6.62041">
        <ele>137</ele>
        <time>2025-02-10T10:17:06Z</time>
      </trkpt>
      <trkpt lat="43.42313" lon="6.62044">
        <ele>137.1</ele>
        <time>2025-02-10T10:17:17Z</time>
      </trkpt>
      <trkpt lat="43.42303" lon="6.62044">
        <ele>137.2</ele>
        <time>2025-02-10T10:17:26Z</time>
      </trkpt>
      <trkpt lat="43.42294" lon="6.62047">
        <ele>137.4</ele>
        <time>2025-02-10T10:18:21Z</time>
      </trkpt>
      <trkpt lat="43.42284" lon="6.62047">
        <ele>137.4</ele>
        <time>2025-02-10T10:18:31Z</time>
      </trkpt>
      <trkpt lat="43.42275" lon="6.62046">
        <ele>137.6</ele>
        <time>2025-02-10T10:18:46Z</time>
      </trkpt>
      <trkpt lat="43.42266" lon="6.62045">
        <ele>137.6</ele>
        <time>2025-02-10T10:18:58Z</time>
      </trkpt>
      <trkpt lat="43.42257" lon="6.62044">
        <ele>137.7</ele>
        <time>2025-02-10T10:19:06Z</time>
      </trkpt>
      <trkpt lat="43.42247" lon="6.62042">
        <ele>137.7</ele>
        <time>2025-02-10T10:19:16Z</time>
      </trkpt>
      <trkpt lat="43.42238" lon="6.62039">
        <ele>138.3</ele>
        <time>2025-02-10T10:19:26Z</time>
      </trkpt>
      <trkpt lat="43.42229" lon="6.62036">
        <ele>139.2</ele>
        <time>2025-02-10T10:19:37Z</time>
      </trkpt>
      <trkpt lat="43.4222" lon="6.62032">
        <ele>140.4</ele>
        <time>2025-02-10T10:19:49Z</time>
      </trkpt>
      <trkpt lat="43.42211" lon="6.62028">
        <ele>143.1</ele>
        <time>2025-02-10T10:20:31Z</time>
      </trkpt>
      <trkpt lat="43.42202" lon="6.62025">
        <ele>143.2</ele>
        <time>2025-02-10T10:20:45Z</time>
      </trkpt>
      <trkpt lat="43.42192" lon="6.62023">
        <ele>144.7</ele>
        <time>2025-02-10T10:20:54Z</time>
      </trkpt>
      <trkpt lat="43.42183" lon="6.62018">
        <ele>145.1</ele>
        <time>2025-02-10T10:21:04Z</time>
      </trkpt>
      <trkpt lat="43.42174" lon="6.62013">
        <ele>146.1</ele>
        <time>2025-02-10T10:21:14Z</time>
      </trkpt>
      <trkpt lat="43.42164" lon="6.62011">
        <ele>147.2</ele>
        <time>2025-02-10T10:21:25Z</time>
      </trkpt>
      <trkpt lat="43.42155" lon="6.62009">
        <ele>147.9</ele>
        <time>2025-02-10T10:21:35Z</time>
      </trkpt>
      <trkpt lat="43.42145" lon="6.62009">
        <ele>148</ele>
        <time>2025-02-10T10:21:45Z</time>
      </trkpt>
      <trkpt lat="43.42135" lon="6.62007">
        <ele>147.8</ele>
        <time>2025-02-10T10:21:56Z</time>
      </trkpt>
      <trkpt lat="43.42126" lon="6.62006">
        <ele>147.8</ele>
        <time>2025-02-10T10:22:14Z</time>
      </trkpt>
      <trkpt lat="43.42117" lon="6.62005">
        <ele>148</ele>
        <time>2025-02-10T10:22:24Z</time>
      </trkpt>
      <trkpt lat="43.42108" lon="6.62003">
        <ele>148</ele>
        <time>2025-02-10T10:22:34Z</time>
      </trkpt>
      <trkpt lat="43.42098" lon="6.62">
        <ele>148</ele>
        <time>2025-02-10T10:23:06Z</time>
      </trkpt>
      <trkpt lat="43.42088" lon="6.61999">
        <ele>147.9</ele>
        <time>2025-02-10T10:23:16Z</time>
      </trkpt>
      <trkpt lat="43.42079" lon="6.61997">
        <ele>148</ele>
        <time>2025-02-10T10:23:24Z</time>
      </trkpt>
      <trkpt lat="43.42069" lon="6.61996">
        <ele>147.9</ele>
        <time>2025-02-10T10:23:34Z</time>
      </trkpt>
      <trkpt lat="43.4206" lon="6.61993">
        <ele>148</ele>
        <time>2025-02-10T10:23:44Z</time>
      </trkpt>
      <trkpt lat="43.4205" lon="6.61992">
        <ele>148.2</ele>
        <time>2025-02-10T10:23:54Z</time>
      </trkpt>
      <trkpt lat="43.42041" lon="6.6199">
        <ele>148.4</ele>
        <time>2025-02-10T10:24:06Z</time>
      </trkpt>
      <trkpt lat="43.42032" lon="6.61988">
        <ele>149.4</ele>
        <time>2025-02-10T10:24:53Z</time>
      </trkpt>
      <trkpt lat="43.42023" lon="6.61987">
        <ele>150</ele>
        <time>2025-02-10T10:25:04Z</time>
      </trkpt>
      <trkpt lat="43.42013" lon="6.61988">
        <ele>150.2</ele>
        <time>2025-02-10T10:25:15Z</time>
      </trkpt>
      <trkpt lat="43.42004" lon="6.61985">
        <ele>150.4</ele>
        <time>2025-02-10T10:25:26Z</time>
      </trkpt>
      <trkpt lat="43.41995" lon="6.61988">
        <ele>151.3</ele>
        <time>2025-02-10T10:26:25Z</time>
      </trkpt>
      <trkpt lat="43.4199" lon="6.61999">
        <ele>153</ele>
        <time>2025-02-10T10:29:49Z</time>
      </trkpt>
      <trkpt lat="43.41982" lon="6.62007">
        <ele>153.1</ele>
        <time>2025-02-10T10:30:09Z</time>
      </trkpt>
      <trkpt lat="43.41974" lon="6.62012">
        <ele>153.5</ele>
        <time>2025-02-10T10:30:19Z</time>
      </trkpt>
      <trkpt lat="43.41965" lon="6.62018">
        <ele>154</ele>
        <time>2025-02-10T10:30:30Z</time>
      </trkpt>
      <trkpt lat="43.41956" lon="6.62022">
        <ele>154.7</ele>
        <time>2025-02-10T10:30:41Z</time>
      </trkpt>
      <trkpt lat="43.41947" lon="6.62027">
        <ele>155.5</ele>
        <time>2025-02-10T10:30:52Z</time>
      </trkpt>
      <trkpt lat="43.41939" lon="6.62032">
        <ele>156</ele>
        <time>2025-02-10T10:31:02Z</time>
      </trkpt>
      <trkpt lat="43.4193" lon="6.62036">
        <ele>156.6</ele>
        <time>2025-02-10T10:31:13Z</time>
      </trkpt>
      <trkpt lat="43.41921" lon="6.62044">
        <ele>157.2</ele>
        <time>2025-02-10T10:31:23Z</time>
      </trkpt>
      <trkpt lat="43.41913" lon="6.62051">
        <ele>157.7</ele>
        <time>2025-02-10T10:31:32Z</time>
      </trkpt>
      <trkpt lat="43.41905" lon="6.62056">
        <ele>158</ele>
        <time>2025-02-10T10:31:42Z</time>
      </trkpt>
      <trkpt lat="43.41897" lon="6.62062">
        <ele>158.4</ele>
        <time>2025-02-10T10:31:51Z</time>
      </trkpt>
      <trkpt lat="43.41888" lon="6.62065">
        <ele>158.8</ele>
        <time>2025-02-10T10:32:01Z</time>
      </trkpt>
      <trkpt lat="43.41878" lon="6.62064">
        <ele>158.9</ele>
        <time>2025-02-10T10:32:32Z</time>
      </trkpt>
      <trkpt lat="43.41869" lon="6.62063">
        <ele>159.1</ele>
        <time>2025-02-10T10:33:08Z</time>
      </trkpt>
      <trkpt lat="43.41859" lon="6.62062">
        <ele>159.4</ele>
        <time>2025-02-10T10:33:18Z</time>
      </trkpt>
      <trkpt lat="43.4185" lon="6.62065">
        <ele>160.2</ele>
        <time>2025-02-10T10:33:30Z</time>
      </trkpt>
      <trkpt lat="43.41841" lon="6.62069">
        <ele>160.3</ele>
        <time>2025-02-10T10:33:42Z</time>
      </trkpt>
      <trkpt lat="43.41832" lon="6.62073">
        <ele>160.4</ele>
        <time>2025-02-10T10:33:55Z</time>
      </trkpt>
      <trkpt lat="43.41824" lon="6.62078">
        <ele>160.7</ele>
        <time>2025-02-10T10:34:04Z</time>
      </trkpt>
      <trkpt lat="43.41815" lon="6.62083">
        <ele>160.9</ele>
        <time>2025-02-10T10:34:16Z</time>
      </trkpt>
      <trkpt lat="43.41806" lon="6.62079">
        <ele>161</ele>
        <time>2025-02-10T10:34:24Z</time>
      </trkpt>
      <trkpt lat="43.41797" lon="6.62077">
        <ele>160.7</ele>
        <time>2025-02-10T10:34:35Z</time>
      </trkpt>
      <trkpt lat="43.41788" lon="6.62076">
        <ele>161.9</ele>
        <time>2025-02-10T10:34:55Z</time>
      </trkpt>
      <trkpt lat="43.41778" lon="6.62075">
        <ele>162.1</ele>
        <time>2025-02-10T10:35:07Z</time>
      </trkpt>
      <trkpt lat="43.41768" lon="6.62074">
        <ele>162.4</ele>
        <time>2025-02-10T10:35:21Z</time>
      </trkpt>
      <trkpt lat="43.41759" lon="6.62071">
        <ele>162.8</ele>
        <time>2025-02-10T10:35:33Z</time>
      </trkpt>
      <trkpt lat="43.41751" lon="6.62067">
        <ele>163.8</ele>
        <time>2025-02-10T10:35:45Z</time>
      </trkpt>
      <trkpt lat="43.41741" lon="6.62067">
        <ele>165</ele>
        <time>2025-02-10T10:36:04Z</time>
      </trkpt>
      <trkpt lat="43.41731" lon="6.6207">
        <ele>165.6</ele>
        <time>2025-02-10T10:36:15Z</time>
      </trkpt>
      <trkpt lat="43.41722" lon="6.62067">
        <ele>166.7</ele>
        <time>2025-02-10T10:36:31Z</time>
      </trkpt>
      <trkpt lat="43.41713" lon="6.62067">
        <ele>167.7</ele>
        <time>2025-02-10T10:36:43Z</time>
      </trkpt>
      <trkpt lat="43.41704" lon="6.62063">
        <ele>168.7</ele>
        <time>2025-02-10T10:36:55Z</time>
      </trkpt>
      <trkpt lat="43.41695" lon="6.6206">
        <ele>169.8</ele>
        <time>2025-02-10T10:37:10Z</time>
      </trkpt>
      <trkpt lat="43.41686" lon="6.62061">
        <ele>170.8</ele>
        <time>2025-02-10T10:37:26Z</time>
      </trkpt>
      <trkpt lat="43.41677" lon="6.62059">
        <ele>171.6</ele>
        <time>2025-02-10T10:37:40Z</time>
      </trkpt>
      <trkpt lat="43.41668" lon="6.62058">
        <ele>172</ele>
        <time>2025-02-10T10:37:52Z</time>
      </trkpt>
      <trkpt lat="43.41659" lon="6.62054">
        <ele>172.3</ele>
        <time>2025-02-10T10:38:03Z</time>
      </trkpt>
      <trkpt lat="43.4165" lon="6.62049">
        <ele>172.9</ele>
        <time>2025-02-10T10:38:14Z</time>
      </trkpt>
      <trkpt lat="43.4164" lon="6.62045">
        <ele>173.6</ele>
        <time>2025-02-10T10:38:29Z</time>
      </trkpt>
      <trkpt lat="43.41632" lon="6.62041">
        <ele>174.1</ele>
        <time>2025-02-10T10:38:54Z</time>
      </trkpt>
      <trkpt lat="43.41623" lon="6.6204">
        <ele>174.7</ele>
        <time>2025-02-10T10:39:10Z</time>
      </trkpt>
      <trkpt lat="43.41613" lon="6.62038">
        <ele>176</ele>
        <time>2025-02-10T10:39:29Z</time>
      </trkpt>
      <trkpt lat="43.41604" lon="6.62036">
        <ele>176.8</ele>
        <time>2025-02-10T10:39:43Z</time>
      </trkpt>
      <trkpt lat="43.41595" lon="6.62037">
        <ele>177.8</ele>
        <time>2025-02-10T10:39:59Z</time>
      </trkpt>
      <trkpt lat="43.41586" lon="6.62037">
        <ele>178.9</ele>
        <time>2025-02-10T10:40:13Z</time>
      </trkpt>
      <trkpt lat="43.41576" lon="6.62041">
        <ele>179.7</ele>
        <time>2025-02-10T10:40:27Z</time>
      </trkpt>
      <trkpt lat="43.41567" lon="6.62041">
        <ele>180.3</ele>
        <time>2025-02-10T10:40:37Z</time>
      </trkpt>
      <trkpt lat="43.41558" lon="6.62044">
        <ele>180.8</ele>
        <time>2025-02-10T10:40:48Z</time>
      </trkpt>
      <trkpt lat="43.41549" lon="6.62047">
        <ele>181.5</ele>
        <time>2025-02-10T10:41:00Z</time>
      </trkpt>
      <trkpt lat="43.41541" lon="6.62042">
        <ele>181.6</ele>
        <time>2025-02-10T10:44:02Z</time>
      </trkpt>
      <trkpt lat="43.41532" lon="6.62039">
        <ele>183.1</ele>
        <time>2025-02-10T10:44:18Z</time>
      </trkpt>
      <trkpt lat="43.41523" lon="6.62034">
        <ele>184.9</ele>
        <time>2025-02-10T10:44:31Z</time>
      </trkpt>
      <trkpt lat="43.41514" lon="6.62029">
        <ele>186.4</ele>
        <time>2025-02-10T10:44:44Z</time>
      </trkpt>
      <trkpt lat="43.41507" lon="6.62022">
        <ele>188.4</ele>
        <time>2025-02-10T10:44:57Z</time>
      </trkpt>
      <trkpt lat="43.415" lon="6.62014">
        <ele>189.7</ele>
        <time>2025-02-10T10:45:10Z</time>
      </trkpt>
      <trkpt lat="43.41494" lon="6.62005">
        <ele>191.7</ele>
        <time>2025-02-10T10:45:25Z</time>
      </trkpt>
      <trkpt lat="43.4149" lon="6.61994">
        <ele>193.3</ele>
        <time>2025-02-10T10:45:40Z</time>
      </trkpt>
      <trkpt lat="43.41486" lon="6.61982">
        <ele>195.5</ele>
        <time>2025-02-10T10:46:23Z</time>
      </trkpt>
      <trkpt lat="43.41482" lon="6.6197">
        <ele>196.1</ele>
        <time>2025-02-10T10:46:46Z</time>
      </trkpt>
      <trkpt lat="43.41476" lon="6.6196">
        <ele>196.8</ele>
        <time>2025-02-10T10:46:59Z</time>
      </trkpt>
      <trkpt lat="43.41471" lon="6.6195">
        <ele>198.1</ele>
        <time>2025-02-10T10:47:26Z</time>
      </trkpt>
      <trkpt lat="43.41465" lon="6.6194">
        <ele>199.4</ele>
        <time>2025-02-10T10:47:40Z</time>
      </trkpt>
      <trkpt lat="43.41458" lon="6.61931">
        <ele>200.3</ele>
        <time>2025-02-10T10:47:52Z</time>
      </trkpt>
      <trkpt lat="43.41452" lon="6.61921">
        <ele>201.3</ele>
        <time>2025-02-10T10:48:04Z</time>
      </trkpt>
      <trkpt lat="43.41447" lon="6.61911">
        <ele>202.8</ele>
        <time>2025-02-10T10:48:16Z</time>
      </trkpt>
      <trkpt lat="43.41446" lon="6.61898">
        <ele>203.4</ele>
        <time>2025-02-10T10:48:31Z</time>
      </trkpt>
      <trkpt lat="43.41446" lon="6.61885">
        <ele>203.9</ele>
        <time>2025-02-10T10:48:42Z</time>
      </trkpt>
      <trkpt lat="43.41446" lon="6.61872">
        <ele>204.3</ele>
        <time>2025-02-10T10:48:53Z</time>
      </trkpt>
      <trkpt lat="43.41446" lon="6.61859">
        <ele>204.5</ele>
        <time>2025-02-10T10:49:03Z</time>
      </trkpt>
      <trkpt lat="43.41443" lon="6.61846">
        <ele>205</ele>
        <time>2025-02-10T10:49:14Z</time>
      </trkpt>
      <trkpt lat="43.41441" lon="6.61834">
        <ele>205.5</ele>
        <time>2025-02-10T10:49:25Z</time>
      </trkpt>
      <trkpt lat="43.41434" lon="6.61824">
        <ele>206</ele>
        <time>2025-02-10T10:49:36Z</time>
      </trkpt>
      <trkpt lat="43.41428" lon="6.61816">
        <ele>206.4</ele>
        <time>2025-02-10T10:49:46Z</time>
      </trkpt>
      <trkpt lat="43.41422" lon="6.61806">
        <ele>206.6</ele>
        <time>2025-02-10T10:49:57Z</time>
      </trkpt>
      <trkpt lat="43.41415" lon="6.61799">
        <ele>207.5</ele>
        <time>2025-02-10T10:50:23Z</time>
      </trkpt>
      <trkpt lat="43.41406" lon="6.61793">
        <ele>208.9</ele>
        <time>2025-02-10T10:50:38Z</time>
      </trkpt>
      <trkpt lat="43.41398" lon="6.61786">
        <ele>210.7</ele>
        <time>2025-02-10T10:50:53Z</time>
      </trkpt>
      <trkpt lat="43.41391" lon="6.61778">
        <ele>211.6</ele>
        <time>2025-02-10T10:51:11Z</time>
      </trkpt>
      <trkpt lat="43.41385" lon="6.61769">
        <ele>211.6</ele>
        <time>2025-02-10T10:51:24Z</time>
      </trkpt>
      <trkpt lat="43.41379" lon="6.61759">
        <ele>212.1</ele>
        <time>2025-02-10T10:51:38Z</time>
      </trkpt>
      <trkpt lat="43.4137" lon="6.61756">
        <ele>213.5</ele>
        <time>2025-02-10T10:51:54Z</time>
      </trkpt>
      <trkpt lat="43.41366" lon="6.61745">
        <ele>214.4</ele>
        <time>2025-02-10T10:53:50Z</time>
      </trkpt>
      <trkpt lat="43.41357" lon="6.61738">
        <ele>214.4</ele>
        <time>2025-02-10T10:54:01Z</time>
      </trkpt>
      <trkpt lat="43.4135" lon="6.61728">
        <ele>214.3</ele>
        <time>2025-02-10T10:54:12Z</time>
      </trkpt>
      <trkpt lat="43.41347" lon="6.61716">
        <ele>214.9</ele>
        <time>2025-02-10T10:54:25Z</time>
      </trkpt>
      <trkpt lat="43.41347" lon="6.61704">
        <ele>215.5</ele>
        <time>2025-02-10T10:54:37Z</time>
      </trkpt>
      <trkpt lat="43.41352" lon="6.61693">
        <ele>215.9</ele>
        <time>2025-02-10T10:54:47Z</time>
      </trkpt>
      <trkpt lat="43.41358" lon="6.61684">
        <ele>216.5</ele>
        <time>2025-02-10T10:54:56Z</time>
      </trkpt>
      <trkpt lat="43.41367" lon="6.61678">
        <ele>217.4</ele>
        <time>2025-02-10T10:55:06Z</time>
      </trkpt>
      <trkpt lat="43.41373" lon="6.61669">
        <ele>217.8</ele>
        <time>2025-02-10T10:55:24Z</time>
      </trkpt>
      <trkpt lat="43.4138" lon="6.6166">
        <ele>218.9</ele>
        <time>2025-02-10T10:55:42Z</time>
      </trkpt>
      <trkpt lat="43.41387" lon="6.61653">
        <ele>220.2</ele>
        <time>2025-02-10T10:55:55Z</time>
      </trkpt>
      <trkpt lat="43.41394" lon="6.61644">
        <ele>221.2</ele>
        <time>2025-02-10T10:56:08Z</time>
      </trkpt>
      <trkpt lat="43.41397" lon="6.61632">
        <ele>222.2</ele>
        <time>2025-02-10T10:56:21Z</time>
      </trkpt>
      <trkpt lat="43.41401" lon="6.6162">
        <ele>223.3</ele>
        <time>2025-02-10T10:56:33Z</time>
      </trkpt>
      <trkpt lat="43.41408" lon="6.61611">
        <ele>225.1</ele>
        <time>2025-02-10T10:57:03Z</time>
      </trkpt>
      <trkpt lat="43.41415" lon="6.61602">
        <ele>224.9</ele>
        <time>2025-02-10T10:58:24Z</time>
      </trkpt>
      <trkpt lat="43.41424" lon="6.616">
        <ele>224.3</ele>
        <time>2025-02-10T10:59:04Z</time>
      </trkpt>
      <trkpt lat="43.41431" lon="6.61592">
        <ele>225.2</ele>
        <time>2025-02-10T10:59:46Z</time>
      </trkpt>
      <trkpt lat="43.4144" lon="6.61588">
        <ele>226</ele>
        <time>2025-02-10T10:59:58Z</time>
      </trkpt>
      <trkpt lat="43.41449" lon="6.61586">
        <ele>226.4</ele>
        <time>2025-02-10T11:00:12Z</time>
      </trkpt>
      <trkpt lat="43.41459" lon="6.61584">
        <ele>226.7</ele>
        <time>2025-02-10T11:00:22Z</time>
      </trkpt>
      <trkpt lat="43.41468" lon="6.61578">
        <ele>227.8</ele>
        <time>2025-02-10T11:00:35Z</time>
      </trkpt>
      <trkpt lat="43.41475" lon="6.61571">
        <ele>230</ele>
        <time>2025-02-10T11:01:02Z</time>
      </trkpt>
      <trkpt lat="43.4148" lon="6.6156">
        <ele>231.9</ele>
        <time>2025-02-10T11:01:18Z</time>
      </trkpt>
      <trkpt lat="43.41486" lon="6.6155">
        <ele>234.7</ele>
        <time>2025-02-10T11:02:11Z</time>
      </trkpt>
      <trkpt lat="43.41494" lon="6.61544">
        <ele>238.2</ele>
        <time>2025-02-10T11:02:34Z</time>
      </trkpt>
      <trkpt lat="43.41501" lon="6.61534">
        <ele>241.6</ele>
        <time>2025-02-10T11:03:03Z</time>
      </trkpt>
      <trkpt lat="43.41504" lon="6.61522">
        <ele>244.1</ele>
        <time>2025-02-10T11:03:52Z</time>
      </trkpt>
      <trkpt lat="43.41508" lon="6.61511">
        <ele>247.8</ele>
        <time>2025-02-10T11:04:21Z</time>
      </trkpt>
      <trkpt lat="43.41513" lon="6.61501">
        <ele>250.1</ele>
        <time>2025-02-10T11:04:55Z</time>
      </trkpt>
      <trkpt lat="43.41519" lon="6.61491">
        <ele>252</ele>
        <time>2025-02-10T11:05:10Z</time>
      </trkpt>
      <trkpt lat="43.41527" lon="6.61485">
        <ele>254</ele>
        <time>2025-02-10T11:06:32Z</time>
      </trkpt>
      <trkpt lat="43.41536" lon="6.61479">
        <ele>255.4</ele>
        <time>2025-02-10T11:06:54Z</time>
      </trkpt>
      <trkpt lat="43.41542" lon="6.6147">
        <ele>256.7</ele>
        <time>2025-02-10T11:07:10Z</time>
      </trkpt>
      <trkpt lat="43.41547" lon="6.61459">
        <ele>258.8</ele>
        <time>2025-02-10T11:07:25Z</time>
      </trkpt>
      <trkpt lat="43.41549" lon="6.61447">
        <ele>260.6</ele>
        <time>2025-02-10T11:07:41Z</time>
      </trkpt>
      <trkpt lat="43.41553" lon="6.61435">
        <ele>263.2</ele>
        <time>2025-02-10T11:08:06Z</time>
      </trkpt>
      <trkpt lat="43.41553" lon="6.61422">
        <ele>263.9</ele>
        <time>2025-02-10T11:08:20Z</time>
      </trkpt>
      <trkpt lat="43.41554" lon="6.6141">
        <ele>265.2</ele>
        <time>2025-02-10T11:08:35Z</time>
      </trkpt>
      <trkpt lat="43.41558" lon="6.61398">
        <ele>267.8</ele>
        <time>2025-02-10T11:08:51Z</time>
      </trkpt>
      <trkpt lat="43.41562" lon="6.61387">
        <ele>268.8</ele>
        <time>2025-02-10T11:10:28Z</time>
      </trkpt>
      <trkpt lat="43.41567" lon="6.61376">
        <ele>269.1</ele>
        <time>2025-02-10T11:11:03Z</time>
      </trkpt>
      <trkpt lat="43.41573" lon="6.61366">
        <ele>267.5</ele>
        <time>2025-02-10T11:11:21Z</time>
      </trkpt>
      <trkpt lat="43.41579" lon="6.61356">
        <ele>265.3</ele>
        <time>2025-02-10T11:11:37Z</time>
      </trkpt>
      <trkpt lat="43.41585" lon="6.61348">
        <ele>263.3</ele>
        <time>2025-02-10T11:11:53Z</time>
      </trkpt>
      <trkpt lat="43.41593" lon="6.61341">
        <ele>261.4</ele>
        <time>2025-02-10T11:12:07Z</time>
      </trkpt>
      <trkpt lat="43.416" lon="6.61334">
        <ele>259.9</ele>
        <time>2025-02-10T11:12:23Z</time>
      </trkpt>
      <trkpt lat="43.41606" lon="6.61324">
        <ele>258.7</ele>
        <time>2025-02-10T11:12:40Z</time>
      </trkpt>
      <trkpt lat="43.41613" lon="6.61316">
        <ele>257.6</ele>
        <time>2025-02-10T11:13:16Z</time>
      </trkpt>
      <trkpt lat="43.41622" lon="6.61312">
        <ele>256.6</ele>
        <time>2025-02-10T11:13:32Z</time>
      </trkpt>
      <trkpt lat="43.4163" lon="6.61306">
        <ele>255.7</ele>
        <time>2025-02-10T11:13:46Z</time>
      </trkpt>
      <trkpt lat="43.41638" lon="6.61299">
        <ele>254.6</ele>
        <time>2025-02-10T11:14:00Z</time>
      </trkpt>
      <trkpt lat="43.41646" lon="6.61296">
        <ele>253.2</ele>
        <time>2025-02-10T11:14:16Z</time>
      </trkpt>
      <trkpt lat="43.41655" lon="6.61291">
        <ele>252</ele>
        <time>2025-02-10T11:14:31Z</time>
      </trkpt>
      <trkpt lat="43.41664" lon="6.61287">
        <ele>250.9</ele>
        <time>2025-02-10T11:14:45Z</time>
      </trkpt>
      <trkpt lat="43.41672" lon="6.61281">
        <ele>249.7</ele>
        <time>2025-02-10T11:15:00Z</time>
      </trkpt>
      <trkpt lat="43.41681" lon="6.61275">
        <ele>248.1</ele>
        <time>2025-02-10T11:15:23Z</time>
      </trkpt>
      <trkpt lat="43.41688" lon="6.61267">
        <ele>247.1</ele>
        <time>2025-02-10T11:15:40Z</time>
      </trkpt>
      <trkpt lat="43.41694" lon="6.61257">
        <ele>245.4</ele>
        <time>2025-02-10T11:15:59Z</time>
      </trkpt>
      <trkpt lat="43.41703" lon="6.61254">
        <ele>243</ele>
        <time>2025-02-10T11:16:53Z</time>
      </trkpt>
      <trkpt lat="43.41711" lon="6.61247">
        <ele>242.5</ele>
        <time>2025-02-10T11:17:38Z</time>
      </trkpt>
      <trkpt lat="43.41716" lon="6.61237">
        <ele>242.8</ele>
        <time>2025-02-10T11:17:58Z</time>
      </trkpt>
      <trkpt lat="43.41721" lon="6.61227">
        <ele>242.8</ele>
        <time>2025-02-10T11:18:13Z</time>
      </trkpt>
      <trkpt lat="43.41726" lon="6.61216">
        <ele>242.7</ele>
        <time>2025-02-10T11:18:27Z</time>
      </trkpt>
      <trkpt lat="43.41729" lon="6.61203">
        <ele>242.7</ele>
        <time>2025-02-10T11:18:38Z</time>
      </trkpt>
      <trkpt lat="43.4173" lon="6.6119">
        <ele>242.7</ele>
        <time>2025-02-10T11:18:48Z</time>
      </trkpt>
      <trkpt lat="43.41728" lon="6.61178">
        <ele>242.8</ele>
        <time>2025-02-10T11:18:57Z</time>
      </trkpt>
      <trkpt lat="43.41725" lon="6.61165">
        <ele>243.2</ele>
        <time>2025-02-10T11:19:07Z</time>
      </trkpt>
      <trkpt lat="43.41717" lon="6.61158">
        <ele>243.7</ele>
        <time>2025-02-10T11:19:17Z</time>
      </trkpt>
      <trkpt lat="43.41708" lon="6.61159">
        <ele>243.8</ele>
        <time>2025-02-10T11:19:33Z</time>
      </trkpt>
      <trkpt lat="43.41698" lon="6.61161">
        <ele>244.1</ele>
        <time>2025-02-10T11:19:44Z</time>
      </trkpt>
      <trkpt lat="43.41689" lon="6.61162">
        <ele>244.7</ele>
        <time>2025-02-10T11:19:55Z</time>
      </trkpt>
      <trkpt lat="43.41692" lon="6.6115">
        <ele>247.3</ele>
        <time>2025-02-10T11:20:27Z</time>
      </trkpt>
      <trkpt lat="43.41683" lon="6.61155">
        <ele>238.2</ele>
        <time>2025-02-10T12:25:40Z</time>
      </trkpt>
      <trkpt lat="43.41692" lon="6.61151">
        <ele>238.3</ele>
        <time>2025-02-10T12:26:07Z</time>
      </trkpt>
      <trkpt lat="43.41701" lon="6.61146">
        <ele>238.7</ele>
        <time>2025-02-10T12:27:06Z</time>
      </trkpt>
      <trkpt lat="43.4171" lon="6.61141">
        <ele>238.6</ele>
        <time>2025-02-10T12:27:18Z</time>
      </trkpt>
      <trkpt lat="43.41719" lon="6.61138">
        <ele>238.6</ele>
        <time>2025-02-10T12:27:32Z</time>
      </trkpt>
      <trkpt lat="43.41728" lon="6.61135">
        <ele>238.5</ele>
        <time>2025-02-10T12:27:42Z</time>
      </trkpt>
      <trkpt lat="43.41735" lon="6.61127">
        <ele>238.7</ele>
        <time>2025-02-10T12:27:53Z</time>
      </trkpt>
      <trkpt lat="43.41744" lon="6.61128">
        <ele>238</ele>
        <time>2025-02-10T12:28:14Z</time>
      </trkpt>
      <trkpt lat="43.41754" lon="6.6113">
        <ele>237.7</ele>
        <time>2025-02-10T12:28:23Z</time>
      </trkpt>
      <trkpt lat="43.41763" lon="6.61134">
        <ele>237.4</ele>
        <time>2025-02-10T12:28:35Z</time>
      </trkpt>
      <trkpt lat="43.41772" lon="6.61139">
        <ele>237.2</ele>
        <time>2025-02-10T12:28:47Z</time>
      </trkpt>
      <trkpt lat="43.41781" lon="6.61143">
        <ele>236.2</ele>
        <time>2025-02-10T12:29:00Z</time>
      </trkpt>
      <trkpt lat="43.4179" lon="6.61145">
        <ele>235.8</ele>
        <time>2025-02-10T12:29:10Z</time>
      </trkpt>
      <trkpt lat="43.418" lon="6.61146">
        <ele>234.9</ele>
        <time>2025-02-10T12:29:21Z</time>
      </trkpt>
      <trkpt lat="43.41808" lon="6.61141">
        <ele>233.8</ele>
        <time>2025-02-10T12:29:32Z</time>
      </trkpt>
      <trkpt lat="43.41817" lon="6.61138">
        <ele>232.6</ele>
        <time>2025-02-10T12:29:45Z</time>
      </trkpt>
      <trkpt lat="43.41826" lon="6.61138">
        <ele>232.1</ele>
        <time>2025-02-10T12:29:54Z</time>
      </trkpt>
      <trkpt lat="43.41835" lon="6.61136">
        <ele>231.5</ele>
        <time>2025-02-10T12:30:11Z</time>
      </trkpt>
      <trkpt lat="43.41845" lon="6.61135">
        <ele>230.7</ele>
        <time>2025-02-10T12:30:24Z</time>
      </trkpt>
      <trkpt lat="43.41854" lon="6.61133">
        <ele>230.1</ele>
        <time>2025-02-10T12:30:35Z</time>
      </trkpt>
      <trkpt lat="43.41863" lon="6.61128">
        <ele>229.8</ele>
        <time>2025-02-10T12:30:46Z</time>
      </trkpt>
      <trkpt lat="43.41872" lon="6.61125">
        <ele>229.3</ele>
        <time>2025-02-10T12:30:57Z</time>
      </trkpt>
      <trkpt lat="43.41881" lon="6.61119">
        <ele>228.6</ele>
        <time>2025-02-10T12:31:09Z</time>
      </trkpt>
      <trkpt lat="43.4189" lon="6.61116">
        <ele>227.8</ele>
        <time>2025-02-10T12:31:20Z</time>
      </trkpt>
      <trkpt lat="43.419" lon="6.61113">
        <ele>227.3</ele>
        <time>2025-02-10T12:31:30Z</time>
      </trkpt>
      <trkpt lat="43.4191" lon="6.61114">
        <ele>226.4</ele>
        <time>2025-02-10T12:31:39Z</time>
      </trkpt>
      <trkpt lat="43.41918" lon="6.6111">
        <ele>225.6</ele>
        <time>2025-02-10T12:31:52Z</time>
      </trkpt>
      <trkpt lat="43.41927" lon="6.61103">
        <ele>224.7</ele>
        <time>2025-02-10T12:32:03Z</time>
      </trkpt>
      <trkpt lat="43.41932" lon="6.61093">
        <ele>223.4</ele>
        <time>2025-02-10T12:32:18Z</time>
      </trkpt>
      <trkpt lat="43.4194" lon="6.61085">
        <ele>222.8</ele>
        <time>2025-02-10T12:32:30Z</time>
      </trkpt>
      <trkpt lat="43.41945" lon="6.61073">
        <ele>222</ele>
        <time>2025-02-10T12:32:40Z</time>
      </trkpt>
      <trkpt lat="43.41947" lon="6.6106">
        <ele>220.8</ele>
        <time>2025-02-10T12:32:51Z</time>
      </trkpt>
      <trkpt lat="43.41945" lon="6.61047">
        <ele>219.6</ele>
        <time>2025-02-10T12:32:59Z</time>
      </trkpt>
      <trkpt lat="43.41938" lon="6.6104">
        <ele>219.4</ele>
        <time>2025-02-10T12:33:12Z</time>
      </trkpt>
      <trkpt lat="43.4193" lon="6.61032">
        <ele>218.7</ele>
        <time>2025-02-10T12:33:26Z</time>
      </trkpt>
      <trkpt lat="43.41922" lon="6.61026">
        <ele>217.4</ele>
        <time>2025-02-10T12:33:37Z</time>
      </trkpt>
      <trkpt lat="43.41913" lon="6.61023">
        <ele>216.3</ele>
        <time>2025-02-10T12:33:47Z</time>
      </trkpt>
      <trkpt lat="43.41904" lon="6.61017">
        <ele>215.5</ele>
        <time>2025-02-10T12:33:58Z</time>
      </trkpt>
      <trkpt lat="43.41901" lon="6.61005">
        <ele>214.5</ele>
        <time>2025-02-10T12:34:07Z</time>
      </trkpt>
      <trkpt lat="43.41903" lon="6.60993">
        <ele>212.7</ele>
        <time>2025-02-10T12:34:20Z</time>
      </trkpt>
      <trkpt lat="43.41907" lon="6.60981">
        <ele>211.7</ele>
        <time>2025-02-10T12:34:38Z</time>
      </trkpt>
      <trkpt lat="43.41914" lon="6.60972">
        <ele>210.8</ele>
        <time>2025-02-10T12:34:49Z</time>
      </trkpt>
      <trkpt lat="43.41923" lon="6.60968">
        <ele>210.4</ele>
        <time>2025-02-10T12:34:58Z</time>
      </trkpt>
      <trkpt lat="43.41932" lon="6.60964">
        <ele>207.8</ele>
        <time>2025-02-10T12:35:14Z</time>
      </trkpt>
      <trkpt lat="43.41941" lon="6.60967">
        <ele>206.5</ele>
        <time>2025-02-10T12:35:24Z</time>
      </trkpt>
      <trkpt lat="43.41949" lon="6.60973">
        <ele>205.3</ele>
        <time>2025-02-10T12:35:34Z</time>
      </trkpt>
      <trkpt lat="43.41958" lon="6.60976">
        <ele>204.5</ele>
        <time>2025-02-10T12:35:50Z</time>
      </trkpt>
      <trkpt lat="43.41968" lon="6.60978">
        <ele>203</ele>
        <time>2025-02-10T12:36:21Z</time>
      </trkpt>
      <trkpt lat="43.41977" lon="6.60974">
        <ele>201.7</ele>
        <time>2025-02-10T12:36:31Z</time>
      </trkpt>
      <trkpt lat="43.41986" lon="6.60969">
        <ele>200.8</ele>
        <time>2025-02-10T12:36:42Z</time>
      </trkpt>
      <trkpt lat="43.41994" lon="6.60964">
        <ele>200.1</ele>
        <time>2025-02-10T12:37:24Z</time>
      </trkpt>
      <trkpt lat="43.42003" lon="6.60957">
        <ele>200</ele>
        <time>2025-02-10T12:37:35Z</time>
      </trkpt>
      <trkpt lat="43.42008" lon="6.60947">
        <ele>199.7</ele>
        <time>2025-02-10T12:38:04Z</time>
      </trkpt>
      <trkpt lat="43.42016" lon="6.60939">
        <ele>199.5</ele>
        <time>2025-02-10T12:38:17Z</time>
      </trkpt>
      <trkpt lat="43.42024" lon="6.60934">
        <ele>199.4</ele>
        <time>2025-02-10T12:38:26Z</time>
      </trkpt>
      <trkpt lat="43.42033" lon="6.60928">
        <ele>199.3</ele>
        <time>2025-02-10T12:38:35Z</time>
      </trkpt>
      <trkpt lat="43.42041" lon="6.60924">
        <ele>199.2</ele>
        <time>2025-02-10T12:38:44Z</time>
      </trkpt>
      <trkpt lat="43.4205" lon="6.60921">
        <ele>198.2</ele>
        <time>2025-02-10T12:38:58Z</time>
      </trkpt>
      <trkpt lat="43.42059" lon="6.60916">
        <ele>197.6</ele>
        <time>2025-02-10T12:39:08Z</time>
      </trkpt>
      <trkpt lat="43.42066" lon="6.60907">
        <ele>197.1</ele>
        <time>2025-02-10T12:39:20Z</time>
      </trkpt>
      <trkpt lat="43.42075" lon="6.60901">
        <ele>196.6</ele>
        <time>2025-02-10T12:39:29Z</time>
      </trkpt>
      <trkpt lat="43.42083" lon="6.60894">
        <ele>195.9</ele>
        <time>2025-02-10T12:39:38Z</time>
      </trkpt>
      <trkpt lat="43.42089" lon="6.60884">
        <ele>195.4</ele>
        <time>2025-02-10T12:39:47Z</time>
      </trkpt>
      <trkpt lat="43.42098" lon="6.60876">
        <ele>195.1</ele>
        <time>2025-02-10T12:39:56Z</time>
      </trkpt>
      <trkpt lat="43.42105" lon="6.60869">
        <ele>195</ele>
        <time>2025-02-10T12:40:05Z</time>
      </trkpt>
      <trkpt lat="43.4211" lon="6.60858">
        <ele>194.9</ele>
        <time>2025-02-10T12:40:16Z</time>
      </trkpt>
      <trkpt lat="43.42115" lon="6.60848">
        <ele>194.3</ele>
        <time>2025-02-10T12:40:26Z</time>
      </trkpt>
      <trkpt lat="43.4212" lon="6.60837">
        <ele>193.9</ele>
        <time>2025-02-10T12:40:35Z</time>
      </trkpt>
      <trkpt lat="43.42126" lon="6.60827">
        <ele>193.3</ele>
        <time>2025-02-10T12:40:44Z</time>
      </trkpt>
      <trkpt lat="43.42129" lon="6.60814">
        <ele>193.3</ele>
        <time>2025-02-10T12:40:53Z</time>
      </trkpt>
      <trkpt lat="43.42136" lon="6.60805">
        <ele>192.7</ele>
        <time>2025-02-10T12:41:02Z</time>
      </trkpt>
      <trkpt lat="43.42141" lon="6.60793">
        <ele>192.5</ele>
        <time>2025-02-10T12:41:19Z</time>
      </trkpt>
      <trkpt lat="43.42149" lon="6.60785">
        <ele>192.2</ele>
        <time>2025-02-10T12:41:28Z</time>
      </trkpt>
      <trkpt lat="43.42157" lon="6.60777">
        <ele>191.9</ele>
        <time>2025-02-10T12:41:36Z</time>
      </trkpt>
      <trkpt lat="43.42165" lon="6.60769">
        <ele>191.5</ele>
        <time>2025-02-10T12:41:45Z</time>
      </trkpt>
      <trkpt lat="43.42173" lon="6.60762">
        <ele>191.2</ele>
        <time>2025-02-10T12:41:54Z</time>
      </trkpt>
      <trkpt lat="43.42179" lon="6.60754">
        <ele>191.4</ele>
        <time>2025-02-10T12:42:07Z</time>
      </trkpt>
      <trkpt lat="43.42186" lon="6.60744">
        <ele>190.5</ele>
        <time>2025-02-10T12:42:30Z</time>
      </trkpt>
      <trkpt lat="43.42192" lon="6.60735">
        <ele>189.6</ele>
        <time>2025-02-10T12:42:41Z</time>
      </trkpt>
      <trkpt lat="43.42199" lon="6.60726">
        <ele>189.8</ele>
        <time>2025-02-10T12:42:54Z</time>
      </trkpt>
      <trkpt lat="43.42206" lon="6.60716">
        <ele>190.4</ele>
        <time>2025-02-10T12:43:03Z</time>
      </trkpt>
      <trkpt lat="43.42212" lon="6.60705">
        <ele>190.7</ele>
        <time>2025-02-10T12:43:13Z</time>
      </trkpt>
      <trkpt lat="43.42217" lon="6.60694">
        <ele>190.8</ele>
        <time>2025-02-10T12:43:31Z</time>
      </trkpt>
      <trkpt lat="43.42223" lon="6.60683">
        <ele>190.7</ele>
        <time>2025-02-10T12:43:40Z</time>
      </trkpt>
      <trkpt lat="43.4223" lon="6.60675">
        <ele>190.6</ele>
        <time>2025-02-10T12:43:54Z</time>
      </trkpt>
      <trkpt lat="43.42238" lon="6.60669">
        <ele>190.5</ele>
        <time>2025-02-10T12:44:04Z</time>
      </trkpt>
      <trkpt lat="43.42247" lon="6.60664">
        <ele>190.1</ele>
        <time>2025-02-10T12:44:14Z</time>
      </trkpt>
      <trkpt lat="43.42256" lon="6.60659">
        <ele>189.5</ele>
        <time>2025-02-10T12:44:26Z</time>
      </trkpt>
      <trkpt lat="43.42264" lon="6.60653">
        <ele>188.9</ele>
        <time>2025-02-10T12:44:36Z</time>
      </trkpt>
      <trkpt lat="43.42273" lon="6.60648">
        <ele>188.1</ele>
        <time>2025-02-10T12:44:46Z</time>
      </trkpt>
      <trkpt lat="43.42282" lon="6.60645">
        <ele>187.3</ele>
        <time>2025-02-10T12:44:57Z</time>
      </trkpt>
      <trkpt lat="43.42292" lon="6.60642">
        <ele>186.6</ele>
        <time>2025-02-10T12:45:06Z</time>
      </trkpt>
      <trkpt lat="43.42301" lon="6.6064">
        <ele>186.1</ele>
        <time>2025-02-10T12:45:15Z</time>
      </trkpt>
      <trkpt lat="43.42311" lon="6.6064">
        <ele>185.4</ele>
        <time>2025-02-10T12:45:25Z</time>
      </trkpt>
      <trkpt lat="43.4232" lon="6.60641">
        <ele>184.3</ele>
        <time>2025-02-10T12:45:35Z</time>
      </trkpt>
      <trkpt lat="43.42328" lon="6.60646">
        <ele>183.1</ele>
        <time>2025-02-10T12:45:46Z</time>
      </trkpt>
      <trkpt lat="43.42337" lon="6.60652">
        <ele>182</ele>
        <time>2025-02-10T12:45:57Z</time>
      </trkpt>
      <trkpt lat="43.42345" lon="6.60659">
        <ele>181.1</ele>
        <time>2025-02-10T12:46:10Z</time>
      </trkpt>
      <trkpt lat="43.42351" lon="6.60669">
        <ele>180.2</ele>
        <time>2025-02-10T12:46:27Z</time>
      </trkpt>
      <trkpt lat="43.42355" lon="6.6068">
        <ele>179.7</ele>
        <time>2025-02-10T12:46:37Z</time>
      </trkpt>
      <trkpt lat="43.42353" lon="6.60693">
        <ele>178.4</ele>
        <time>2025-02-10T12:46:56Z</time>
      </trkpt>
      <trkpt lat="43.42358" lon="6.60705">
        <ele>177.6</ele>
        <time>2025-02-10T12:47:06Z</time>
      </trkpt>
      <trkpt lat="43.42365" lon="6.60713">
        <ele>176.8</ele>
        <time>2025-02-10T12:47:14Z</time>
      </trkpt>
      <trkpt lat="43.42373" lon="6.6072">
        <ele>175.2</ele>
        <time>2025-02-10T12:47:28Z</time>
      </trkpt>
      <trkpt lat="43.4238" lon="6.60728">
        <ele>174</ele>
        <time>2025-02-10T12:47:39Z</time>
      </trkpt>
      <trkpt lat="43.42389" lon="6.60731">
        <ele>172.9</ele>
        <time>2025-02-10T12:47:49Z</time>
      </trkpt>
      <trkpt lat="43.42399" lon="6.6073">
        <ele>171.9</ele>
        <time>2025-02-10T12:48:01Z</time>
      </trkpt>
      <trkpt lat="43.42409" lon="6.60729">
        <ele>171</ele>
        <time>2025-02-10T12:48:10Z</time>
      </trkpt>
      <trkpt lat="43.42418" lon="6.6073">
        <ele>169.7</ele>
        <time>2025-02-10T12:49:43Z</time>
      </trkpt>
      <trkpt lat="43.42427" lon="6.60731">
        <ele>169.6</ele>
        <time>2025-02-10T12:51:05Z</time>
      </trkpt>
      <trkpt lat="43.42436" lon="6.60729">
        <ele>169.1</ele>
        <time>2025-02-10T12:51:40Z</time>
      </trkpt>
      <trkpt lat="43.42444" lon="6.60733">
        <ele>169.4</ele>
        <time>2025-02-10T12:52:44Z</time>
      </trkpt>
      <trkpt lat="43.42453" lon="6.60737">
        <ele>169.4</ele>
        <time>2025-02-10T12:53:15Z</time>
      </trkpt>
      <trkpt lat="43.42462" lon="6.60744">
        <ele>169.2</ele>
        <time>2025-02-10T12:53:29Z</time>
      </trkpt>
      <trkpt lat="43.42468" lon="6.60753">
        <ele>168.4</ele>
        <time>2025-02-10T12:53:41Z</time>
      </trkpt>
      <trkpt lat="43.42477" lon="6.60758">
        <ele>168.1</ele>
        <time>2025-02-10T12:54:53Z</time>
      </trkpt>
      <trkpt lat="43.42485" lon="6.60762">
        <ele>167.8</ele>
        <time>2025-02-10T12:55:04Z</time>
      </trkpt>
      <trkpt lat="43.42495" lon="6.60764">
        <ele>167.5</ele>
        <time>2025-02-10T12:55:11Z</time>
      </trkpt>
      <trkpt lat="43.42504" lon="6.60767">
        <ele>167.3</ele>
        <time>2025-02-10T12:55:18Z</time>
      </trkpt>
      <trkpt lat="43.42515" lon="6.60769">
        <ele>167.3</ele>
        <time>2025-02-10T12:55:26Z</time>
      </trkpt>
      <trkpt lat="43.42524" lon="6.60774">
        <ele>167.2</ele>
        <time>2025-02-10T12:55:35Z</time>
      </trkpt>
      <trkpt lat="43.42532" lon="6.60782">
        <ele>166.5</ele>
        <time>2025-02-10T12:55:45Z</time>
      </trkpt>
      <trkpt lat="43.42539" lon="6.60791">
        <ele>166.4</ele>
        <time>2025-02-10T12:56:43Z</time>
      </trkpt>
      <trkpt lat="43.42542" lon="6.60803">
        <ele>166</ele>
        <time>2025-02-10T12:56:54Z</time>
      </trkpt>
      <trkpt lat="43.42545" lon="6.60816">
        <ele>165.4</ele>
        <time>2025-02-10T12:57:05Z</time>
      </trkpt>
      <trkpt lat="43.42546" lon="6.60829">
        <ele>164.8</ele>
        <time>2025-02-10T12:57:14Z</time>
      </trkpt>
      <trkpt lat="43.42546" lon="6.60842">
        <ele>164.2</ele>
        <time>2025-02-10T12:57:22Z</time>
      </trkpt>
      <trkpt lat="43.42545" lon="6.60855">
        <ele>163.1</ele>
        <time>2025-02-10T12:57:31Z</time>
      </trkpt>
      <trkpt lat="43.42544" lon="6.60868">
        <ele>162.2</ele>
        <time>2025-02-10T12:57:42Z</time>
      </trkpt>
      <trkpt lat="43.42542" lon="6.60881">
        <ele>161.5</ele>
        <time>2025-02-10T12:57:52Z</time>
      </trkpt>
      <trkpt lat="43.42542" lon="6.60894">
        <ele>161</ele>
        <time>2025-02-10T12:57:59Z</time>
      </trkpt>
      <trkpt lat="43.42543" lon="6.60907">
        <ele>160.8</ele>
        <time>2025-02-10T12:58:06Z</time>
      </trkpt>
      <trkpt lat="43.42547" lon="6.60918">
        <ele>160.9</ele>
        <time>2025-02-10T12:58:17Z</time>
      </trkpt>
      <trkpt lat="43.42551" lon="6.6093">
        <ele>160.7</ele>
        <time>2025-02-10T12:58:27Z</time>
      </trkpt>
      <trkpt lat="43.4255" lon="6.60943">
        <ele>160.4</ele>
        <time>2025-02-10T12:58:35Z</time>
      </trkpt>
      <trkpt lat="43.4255" lon="6.60957">
        <ele>160.2</ele>
        <time>2025-02-10T12:58:43Z</time>
      </trkpt>
      <trkpt lat="43.42547" lon="6.6097">
        <ele>159.7</ele>
        <time>2025-02-10T12:58:52Z</time>
      </trkpt>
      <trkpt lat="43.42543" lon="6.60983">
        <ele>158.8</ele>
        <time>2025-02-10T12:59:01Z</time>
      </trkpt>
      <trkpt lat="43.42541" lon="6.60995">
        <ele>157.7</ele>
        <time>2025-02-10T12:59:10Z</time>
      </trkpt>
      <trkpt lat="43.42545" lon="6.61007">
        <ele>157</ele>
        <time>2025-02-10T12:59:18Z</time>
      </trkpt>
      <trkpt lat="43.4255" lon="6.61019">
        <ele>156</ele>
        <time>2025-02-10T12:59:28Z</time>
      </trkpt>
      <trkpt lat="43.42556" lon="6.6103">
        <ele>155.6</ele>
        <time>2025-02-10T12:59:37Z</time>
      </trkpt>
      <trkpt lat="43.42552" lon="6.61041">
        <ele>155.1</ele>
        <time>2025-02-10T12:59:45Z</time>
      </trkpt>
      <trkpt lat="43.42551" lon="6.61055">
        <ele>154.7</ele>
        <time>2025-02-10T12:59:53Z</time>
      </trkpt>
      <trkpt lat="43.42555" lon="6.61067">
        <ele>154.4</ele>
        <time>2025-02-10T13:00:03Z</time>
      </trkpt>
      <trkpt lat="43.42564" lon="6.61073">
        <ele>154</ele>
        <time>2025-02-10T13:00:13Z</time>
      </trkpt>
      <trkpt lat="43.42573" lon="6.61078">
        <ele>153.7</ele>
        <time>2025-02-10T13:00:20Z</time>
      </trkpt>
      <trkpt lat="43.42581" lon="6.61084">
        <ele>153.1</ele>
        <time>2025-02-10T13:00:35Z</time>
      </trkpt>
      <trkpt lat="43.42589" lon="6.61091">
        <ele>153</ele>
        <time>2025-02-10T13:00:44Z</time>
      </trkpt>
      <trkpt lat="43.42598" lon="6.61096">
        <ele>152.5</ele>
        <time>2025-02-10T13:00:57Z</time>
      </trkpt>
      <trkpt lat="43.42606" lon="6.61103">
        <ele>152</ele>
        <time>2025-02-10T13:01:06Z</time>
      </trkpt>
      <trkpt lat="43.42614" lon="6.61109">
        <ele>151.4</ele>
        <time>2025-02-10T13:01:16Z</time>
      </trkpt>
      <trkpt lat="43.42624" lon="6.61112">
        <ele>150.9</ele>
        <time>2025-02-10T13:01:26Z</time>
      </trkpt>
      <trkpt lat="43.42633" lon="6.61113">
        <ele>150.4</ele>
        <time>2025-02-10T13:01:35Z</time>
      </trkpt>
      <trkpt lat="43.42643" lon="6.6111">
        <ele>149.8</ele>
        <time>2025-02-10T13:01:45Z</time>
      </trkpt>
      <trkpt lat="43.42652" lon="6.6111">
        <ele>149.2</ele>
        <time>2025-02-10T13:01:54Z</time>
      </trkpt>
      <trkpt lat="43.42661" lon="6.61112">
        <ele>148.3</ele>
        <time>2025-02-10T13:02:08Z</time>
      </trkpt>
      <trkpt lat="43.42669" lon="6.61117">
        <ele>147.5</ele>
        <time>2025-02-10T13:02:19Z</time>
      </trkpt>
      <trkpt lat="43.42677" lon="6.61125">
        <ele>147</ele>
        <time>2025-02-10T13:02:27Z</time>
      </trkpt>
      <trkpt lat="43.42684" lon="6.61134">
        <ele>146</ele>
        <time>2025-02-10T13:02:39Z</time>
      </trkpt>
      <trkpt lat="43.42694" lon="6.61141">
        <ele>145</ele>
        <time>2025-02-10T13:02:49Z</time>
      </trkpt>
      <trkpt lat="43.42703" lon="6.61144">
        <ele>145.6</ele>
        <time>2025-02-10T13:02:54Z</time>
      </trkpt>
      <trkpt lat="43.42713" lon="6.61145">
        <ele>145.3</ele>
        <time>2025-02-10T13:03:03Z</time>
      </trkpt>
      <trkpt lat="43.42723" lon="6.61144">
        <ele>144.5</ele>
        <time>2025-02-10T13:03:13Z</time>
      </trkpt>
      <trkpt lat="43.42731" lon="6.61136">
        <ele>143.8</ele>
        <time>2025-02-10T13:03:26Z</time>
      </trkpt>
      <trkpt lat="43.42735" lon="6.61125">
        <ele>143.4</ele>
        <time>2025-02-10T13:03:45Z</time>
      </trkpt>
      <trkpt lat="43.42739" lon="6.61113">
        <ele>143.2</ele>
        <time>2025-02-10T13:03:54Z</time>
      </trkpt>
      <trkpt lat="43.42746" lon="6.61107">
        <ele>142.3</ele>
        <time>2025-02-10T13:04:04Z</time>
      </trkpt>
      <trkpt lat="43.42756" lon="6.61103">
        <ele>141.2</ele>
        <time>2025-02-10T13:04:14Z</time>
      </trkpt>
      <trkpt lat="43.42765" lon="6.61099">
        <ele>140.2</ele>
        <time>2025-02-10T13:04:24Z</time>
      </trkpt>
      <trkpt lat="43.42773" lon="6.61096">
        <ele>139.5</ele>
        <time>2025-02-10T13:04:32Z</time>
      </trkpt>
      <trkpt lat="43.4278" lon="6.61086">
        <ele>139.4</ele>
        <time>2025-02-10T13:04:45Z</time>
      </trkpt>
      <trkpt lat="43.42789" lon="6.61082">
        <ele>138.9</ele>
        <time>2025-02-10T13:04:53Z</time>
      </trkpt>
      <trkpt lat="43.42799" lon="6.6108">
        <ele>138.6</ele>
        <time>2025-02-10T13:05:02Z</time>
      </trkpt>
      <trkpt lat="43.42808" lon="6.61083">
        <ele>138</ele>
        <time>2025-02-10T13:05:12Z</time>
      </trkpt>
      <trkpt lat="43.42815" lon="6.61091">
        <ele>137.4</ele>
        <time>2025-02-10T13:05:22Z</time>
      </trkpt>
      <trkpt lat="43.42822" lon="6.61099">
        <ele>136.7</ele>
        <time>2025-02-10T13:05:30Z</time>
      </trkpt>
      <trkpt lat="43.4283" lon="6.61105">
        <ele>136</ele>
        <time>2025-02-10T13:05:44Z</time>
      </trkpt>
      <trkpt lat="43.42838" lon="6.61112">
        <ele>135.4</ele>
        <time>2025-02-10T13:05:54Z</time>
      </trkpt>
      <trkpt lat="43.42847" lon="6.61111">
        <ele>134.9</ele>
        <time>2025-02-10T13:06:12Z</time>
      </trkpt>
      <trkpt lat="43.42855" lon="6.61117">
        <ele>134.7</ele>
        <time>2025-02-10T13:07:07Z</time>
      </trkpt>
      <trkpt lat="43.42864" lon="6.61121">
        <ele>133.7</ele>
        <time>2025-02-10T13:07:35Z</time>
      </trkpt>
      <trkpt lat="43.42872" lon="6.61127">
        <ele>132.2</ele>
        <time>2025-02-10T13:09:02Z</time>
      </trkpt>
      <trkpt lat="43.42882" lon="6.6113">
        <ele>131.7</ele>
        <time>2025-02-10T13:09:10Z</time>
      </trkpt>
      <trkpt lat="43.42889" lon="6.61139">
        <ele>131.3</ele>
        <time>2025-02-10T13:09:19Z</time>
      </trkpt>
      <trkpt lat="43.42895" lon="6.61149">
        <ele>130.9</ele>
        <time>2025-02-10T13:09:29Z</time>
      </trkpt>
      <trkpt lat="43.42901" lon="6.61159">
        <ele>130.3</ele>
        <time>2025-02-10T13:09:37Z</time>
      </trkpt>
      <trkpt lat="43.42908" lon="6.61169">
        <ele>129.5</ele>
        <time>2025-02-10T13:09:47Z</time>
      </trkpt>
      <trkpt lat="43.42916" lon="6.61177">
        <ele>129</ele>
        <time>2025-02-10T13:09:55Z</time>
      </trkpt>
      <trkpt lat="43.42924" lon="6.61184">
        <ele>128.1</ele>
        <time>2025-02-10T13:10:06Z</time>
      </trkpt>
      <trkpt lat="43.42933" lon="6.61188">
        <ele>127.3</ele>
        <time>2025-02-10T13:10:15Z</time>
      </trkpt>
      <trkpt lat="43.42942" lon="6.61187">
        <ele>126.6</ele>
        <time>2025-02-10T13:10:24Z</time>
      </trkpt>
      <trkpt lat="43.42951" lon="6.61189">
        <ele>125.8</ele>
        <time>2025-02-10T13:10:33Z</time>
      </trkpt>
      <trkpt lat="43.42956" lon="6.612">
        <ele>124.8</ele>
        <time>2025-02-10T13:10:43Z</time>
      </trkpt>
      <trkpt lat="43.42962" lon="6.61211">
        <ele>124.1</ele>
        <time>2025-02-10T13:10:51Z</time>
      </trkpt>
      <trkpt lat="43.42968" lon="6.61221">
        <ele>123.2</ele>
        <time>2025-02-10T13:11:00Z</time>
      </trkpt>
      <trkpt lat="43.42974" lon="6.6123">
        <ele>122.6</ele>
        <time>2025-02-10T13:11:09Z</time>
      </trkpt>
      <trkpt lat="43.42979" lon="6.61242">
        <ele>122</ele>
        <time>2025-02-10T13:11:18Z</time>
      </trkpt>
      <trkpt lat="43.42984" lon="6.61253">
        <ele>121.1</ele>
        <time>2025-02-10T13:11:26Z</time>
      </trkpt>
      <trkpt lat="43.42984" lon="6.61265">
        <ele>120.1</ele>
        <time>2025-02-10T13:11:35Z</time>
      </trkpt>
      <trkpt lat="43.42986" lon="6.61278">
        <ele>119.2</ele>
        <time>2025-02-10T13:11:44Z</time>
      </trkpt>
      <trkpt lat="43.42991" lon="6.6129">
        <ele>118.4</ele>
        <time>2025-02-10T13:11:54Z</time>
      </trkpt>
      <trkpt lat="43.42996" lon="6.61301">
        <ele>117.9</ele>
        <time>2025-02-10T13:12:03Z</time>
      </trkpt>
      <trkpt lat="43.43003" lon="6.61311">
        <ele>117.4</ele>
        <time>2025-02-10T13:12:13Z</time>
      </trkpt>
      <trkpt lat="43.4301" lon="6.61321">
        <ele>116.8</ele>
        <time>2025-02-10T13:12:23Z</time>
      </trkpt>
      <trkpt lat="43.43013" lon="6.61334">
        <ele>116.4</ele>
        <time>2025-02-10T13:13:06Z</time>
      </trkpt>
      <trkpt lat="43.43016" lon="6.61345">
        <ele>115.6</ele>
        <time>2025-02-10T13:13:36Z</time>
      </trkpt>
      <trkpt lat="43.43017" lon="6.61357">
        <ele>115.4</ele>
        <time>2025-02-10T13:14:04Z</time>
      </trkpt>
      <trkpt lat="43.43019" lon="6.61371">
        <ele>114.4</ele>
        <time>2025-02-10T13:14:27Z</time>
      </trkpt>
      <trkpt lat="43.4302" lon="6.61384">
        <ele>113.3</ele>
        <time>2025-02-10T13:14:43Z</time>
      </trkpt>
      <trkpt lat="43.43025" lon="6.61396">
        <ele>112.1</ele>
        <time>2025-02-10T13:14:53Z</time>
      </trkpt>
      <trkpt lat="43.43032" lon="6.61406">
        <ele>110.9</ele>
        <time>2025-02-10T13:15:02Z</time>
      </trkpt>
      <trkpt lat="43.43037" lon="6.61417">
        <ele>109.5</ele>
        <time>2025-02-10T13:15:12Z</time>
      </trkpt>
      <trkpt lat="43.43042" lon="6.61427">
        <ele>108</ele>
        <time>2025-02-10T13:15:22Z</time>
      </trkpt>
      <trkpt lat="43.43049" lon="6.61436">
        <ele>108.4</ele>
        <time>2025-02-10T13:15:33Z</time>
      </trkpt>
      <trkpt lat="43.43051" lon="6.61423">
        <ele>107.6</ele>
        <time>2025-02-10T13:15:50Z</time>
      </trkpt>
      <trkpt lat="43.4305" lon="6.6141">
        <ele>106.6</ele>
        <time>2025-02-10T13:16:11Z</time>
      </trkpt>
      <trkpt lat="43.4305" lon="6.61398">
        <ele>105.7</ele>
        <time>2025-02-10T13:16:21Z</time>
      </trkpt>
      <trkpt lat="43.4305" lon="6.61385">
        <ele>104.7</ele>
        <time>2025-02-10T13:16:30Z</time>
      </trkpt>
      <trkpt lat="43.43054" lon="6.61373">
        <ele>103.6</ele>
        <time>2025-02-10T13:16:41Z</time>
      </trkpt>
      <trkpt lat="43.43061" lon="6.61364">
        <ele>103.6</ele>
        <time>2025-02-10T13:16:59Z</time>
      </trkpt>
      <trkpt lat="43.43067" lon="6.61353">
        <ele>103.5</ele>
        <time>2025-02-10T13:17:16Z</time>
      </trkpt>
      <trkpt lat="43.43073" lon="6.61342">
        <ele>102.2</ele>
        <time>2025-02-10T13:17:25Z</time>
      </trkpt>
      <trkpt lat="43.43079" lon="6.61333">
        <ele>101.3</ele>
        <time>2025-02-10T13:17:34Z</time>
      </trkpt>
      <trkpt lat="43.43085" lon="6.61323">
        <ele>100.1</ele>
        <time>2025-02-10T13:17:44Z</time>
      </trkpt>
      <trkpt lat="43.43092" lon="6.61315">
        <ele>99.4</ele>
        <time>2025-02-10T13:17:52Z</time>
      </trkpt>
      <trkpt lat="43.431" lon="6.61306">
        <ele>98.9</ele>
        <time>2025-02-10T13:18:02Z</time>
      </trkpt>
      <trkpt lat="43.43106" lon="6.61296">
        <ele>98.3</ele>
        <time>2025-02-10T13:18:13Z</time>
      </trkpt>
      <trkpt lat="43.43112" lon="6.61286">
        <ele>97.7</ele>
        <time>2025-02-10T13:18:22Z</time>
      </trkpt>
      <trkpt lat="43.43118" lon="6.61275">
        <ele>97</ele>
        <time>2025-02-10T13:18:31Z</time>
      </trkpt>
      <trkpt lat="43.43123" lon="6.61265">
        <ele>96.5</ele>
        <time>2025-02-10T13:18:40Z</time>
      </trkpt>
      <trkpt lat="43.43127" lon="6.61253">
        <ele>96.3</ele>
        <time>2025-02-10T13:18:50Z</time>
      </trkpt>
      <trkpt lat="43.43132" lon="6.61242">
        <ele>96.4</ele>
        <time>2025-02-10T13:19:01Z</time>
      </trkpt>
      <trkpt lat="43.43134" lon="6.61229">
        <ele>96</ele>
        <time>2025-02-10T13:19:12Z</time>
      </trkpt>
      <trkpt lat="43.43133" lon="6.61215">
        <ele>95.5</ele>
        <time>2025-02-10T13:19:20Z</time>
      </trkpt>
      <trkpt lat="43.43131" lon="6.61202">
        <ele>94.7</ele>
        <time>2025-02-10T13:19:29Z</time>
      </trkpt>
      <trkpt lat="43.43129" lon="6.6119">
        <ele>94.1</ele>
        <time>2025-02-10T13:19:38Z</time>
      </trkpt>
      <trkpt lat="43.43124" lon="6.61179">
        <ele>93.5</ele>
        <time>2025-02-10T13:19:47Z</time>
      </trkpt>
      <trkpt lat="43.43118" lon="6.6117">
        <ele>93.1</ele>
        <time>2025-02-10T13:19:55Z</time>
      </trkpt>
      <trkpt lat="43.43111" lon="6.61161">
        <ele>92.2</ele>
        <time>2025-02-10T13:20:05Z</time>
      </trkpt>
      <trkpt lat="43.43104" lon="6.61151">
        <ele>91.7</ele>
        <time>2025-02-10T13:20:34Z</time>
      </trkpt>
      <trkpt lat="43.43099" lon="6.61141">
        <ele>91.3</ele>
        <time>2025-02-10T13:20:51Z</time>
      </trkpt>
      <trkpt lat="43.43091" lon="6.61133">
        <ele>90.9</ele>
        <time>2025-02-10T13:21:04Z</time>
      </trkpt>
      <trkpt lat="43.43084" lon="6.61125">
        <ele>90.4</ele>
        <time>2025-02-10T13:21:13Z</time>
      </trkpt>
      <trkpt lat="43.43075" lon="6.61122">
        <ele>89.9</ele>
        <time>2025-02-10T13:21:25Z</time>
      </trkpt>
      <trkpt lat="43.43066" lon="6.61117">
        <ele>89.8</ele>
        <time>2025-02-10T13:21:34Z</time>
      </trkpt>
      <trkpt lat="43.43063" lon="6.61105">
        <ele>89.7</ele>
        <time>2025-02-10T13:21:45Z</time>
      </trkpt>
      <trkpt lat="43.43065" lon="6.61092">
        <ele>90.1</ele>
        <time>2025-02-10T13:21:55Z</time>
      </trkpt>
      <trkpt lat="43.4307" lon="6.6108">
        <ele>90.3</ele>
        <time>2025-02-10T13:22:06Z</time>
      </trkpt>
      <trkpt lat="43.43072" lon="6.61067">
        <ele>90.4</ele>
        <time>2025-02-10T13:22:16Z</time>
      </trkpt>
      <trkpt lat="43.43074" lon="6.61054">
        <ele>90.4</ele>
        <time>2025-02-10T13:22:25Z</time>
      </trkpt>
      <trkpt lat="43.4308" lon="6.61044">
        <ele>89.7</ele>
        <time>2025-02-10T13:22:42Z</time>
      </trkpt>
      <trkpt lat="43.43071" lon="6.61038">
        <ele>90.6</ele>
        <time>2025-02-10T13:31:46Z</time>
      </trkpt>
      <trkpt lat="43.43064" lon="6.61029">
        <ele>90.5</ele>
        <time>2025-02-10T13:31:56Z</time>
      </trkpt>
      <trkpt lat="43.43058" lon="6.6102">
        <ele>89.8</ele>
        <time>2025-02-10T13:32:09Z</time>
      </trkpt>
      <trkpt lat="43.43052" lon="6.6101">
        <ele>89.2</ele>
        <time>2025-02-10T13:32:18Z</time>
      </trkpt>
      <trkpt lat="43.43047" lon="6.60999">
        <ele>88.4</ele>
        <time>2025-02-10T13:32:26Z</time>
      </trkpt>
      <trkpt lat="43.43043" lon="6.60986">
        <ele>87.4</ele>
        <time>2025-02-10T13:32:35Z</time>
      </trkpt>
      <trkpt lat="43.43038" lon="6.60975">
        <ele>87.1</ele>
        <time>2025-02-10T13:32:43Z</time>
      </trkpt>
      <trkpt lat="43.43033" lon="6.60962">
        <ele>86.1</ele>
        <time>2025-02-10T13:32:52Z</time>
      </trkpt>
      <trkpt lat="43.43029" lon="6.60951">
        <ele>85.1</ele>
        <time>2025-02-10T13:33:01Z</time>
      </trkpt>
      <trkpt lat="43.43023" lon="6.60941">
        <ele>84.8</ele>
        <time>2025-02-10T13:33:11Z</time>
      </trkpt>
      <trkpt lat="43.43019" lon="6.60929">
        <ele>84.5</ele>
        <time>2025-02-10T13:33:20Z</time>
      </trkpt>
      <trkpt lat="43.43014" lon="6.60918">
        <ele>84.3</ele>
        <time>2025-02-10T13:33:28Z</time>
      </trkpt>
      <trkpt lat="43.43011" lon="6.60906">
        <ele>84.4</ele>
        <time>2025-02-10T13:33:37Z</time>
      </trkpt>
      <trkpt lat="43.43006" lon="6.60895">
        <ele>83.8</ele>
        <time>2025-02-10T13:33:46Z</time>
      </trkpt>
      <trkpt lat="43.43004" lon="6.60881">
        <ele>81.8</ele>
        <time>2025-02-10T13:33:57Z</time>
      </trkpt>
      <trkpt lat="43.43001" lon="6.60868">
        <ele>81.2</ele>
        <time>2025-02-10T13:34:06Z</time>
      </trkpt>
      <trkpt lat="43.42997" lon="6.60857">
        <ele>80.1</ele>
        <time>2025-02-10T13:34:15Z</time>
      </trkpt>
      <trkpt lat="43.42993" lon="6.60845">
        <ele>78.9</ele>
        <time>2025-02-10T13:34:26Z</time>
      </trkpt>
      <trkpt lat="43.42989" lon="6.60834">
        <ele>77.8</ele>
        <time>2025-02-10T13:34:35Z</time>
      </trkpt>
      <trkpt lat="43.42984" lon="6.60823">
        <ele>77.1</ele>
        <time>2025-02-10T13:34:43Z</time>
      </trkpt>
      <trkpt lat="43.42984" lon="6.6081">
        <ele>76.1</ele>
        <time>2025-02-10T13:34:52Z</time>
      </trkpt>
      <trkpt lat="43.42983" lon="6.60797">
        <ele>74.6</ele>
        <time>2025-02-10T13:35:01Z</time>
      </trkpt>
      <trkpt lat="43.42981" lon="6.60785">
        <ele>73.7</ele>
        <time>2025-02-10T13:35:10Z</time>
      </trkpt>
      <trkpt lat="43.42983" lon="6.60771">
        <ele>72.8</ele>
        <time>2025-02-10T13:35:19Z</time>
      </trkpt>
      <trkpt lat="43.4298" lon="6.60759">
        <ele>72.4</ele>
        <time>2025-02-10T13:35:36Z</time>
      </trkpt>
      <trkpt lat="43.4297" lon="6.60759">
        <ele>73.5</ele>
        <time>2025-02-10T13:35:50Z</time>
      </trkpt>
      <trkpt lat="43.42979" lon="6.6076">
        <ele>73.4</ele>
        <time>2025-02-10T13:36:41Z</time>
      </trkpt>
      <trkpt lat="43.42986" lon="6.6075">
        <ele>72.4</ele>
        <time>2025-02-10T13:36:49Z</time>
      </trkpt>
      <trkpt lat="43.42992" lon="6.60741">
        <ele>71.6</ele>
        <time>2025-02-10T13:36:57Z</time>
      </trkpt>
      <trkpt lat="43.42999" lon="6.60731">
        <ele>71.3</ele>
        <time>2025-02-10T13:37:05Z</time>
      </trkpt>
      <trkpt lat="43.43006" lon="6.60723">
        <ele>70.7</ele>
        <time>2025-02-10T13:37:13Z</time>
      </trkpt>
      <trkpt lat="43.43015" lon="6.60719">
        <ele>70.1</ele>
        <time>2025-02-10T13:37:20Z</time>
      </trkpt>
      <trkpt lat="43.43024" lon="6.60714">
        <ele>69.6</ele>
        <time>2025-02-10T13:37:27Z</time>
      </trkpt>
      <trkpt lat="43.43034" lon="6.60714">
        <ele>69</ele>
        <time>2025-02-10T13:37:35Z</time>
      </trkpt>
      <trkpt lat="43.43043" lon="6.60719">
        <ele>68.5</ele>
        <time>2025-02-10T13:37:42Z</time>
      </trkpt>
      <trkpt lat="43.43052" lon="6.60723">
        <ele>68.1</ele>
        <time>2025-02-10T13:37:49Z</time>
      </trkpt>
      <trkpt lat="43.43061" lon="6.60728">
        <ele>67.9</ele>
        <time>2025-02-10T13:37:57Z</time>
      </trkpt>
      <trkpt lat="43.43071" lon="6.60732">
        <ele>67.7</ele>
        <time>2025-02-10T13:38:04Z</time>
      </trkpt>
      <trkpt lat="43.43079" lon="6.60739">
        <ele>67.3</ele>
        <time>2025-02-10T13:38:12Z</time>
      </trkpt>
      <trkpt lat="43.43088" lon="6.60744">
        <ele>66.7</ele>
        <time>2025-02-10T13:38:20Z</time>
      </trkpt>
      <trkpt lat="43.43097" lon="6.60746">
        <ele>65.5</ele>
        <time>2025-02-10T13:38:30Z</time>
      </trkpt>
      <trkpt lat="43.43104" lon="6.60737">
        <ele>64.6</ele>
        <time>2025-02-10T13:39:08Z</time>
      </trkpt>
      <trkpt lat="43.43107" lon="6.60749">
        <ele>64.4</ele>
        <time>2025-02-10T13:39:42Z</time>
      </trkpt>
      <trkpt lat="43.43115" lon="6.60742">
        <ele>64.9</ele>
        <time>2025-02-10T13:41:11Z</time>
      </trkpt>
      <trkpt lat="43.43123" lon="6.60736">
        <ele>65.2</ele>
        <time>2025-02-10T13:41:25Z</time>
      </trkpt>
      <trkpt lat="43.43127" lon="6.60747">
        <ele>66.7</ele>
        <time>2025-02-10T13:42:42Z</time>
      </trkpt>
      <trkpt lat="43.43135" lon="6.60753">
        <ele>66.5</ele>
        <time>2025-02-10T13:44:04Z</time>
      </trkpt>
      <trkpt lat="43.43141" lon="6.60763">
        <ele>66.2</ele>
        <time>2025-02-10T13:44:22Z</time>
      </trkpt>
      <trkpt lat="43.43146" lon="6.60774">
        <ele>65.8</ele>
        <time>2025-02-10T13:44:52Z</time>
      </trkpt>
      <trkpt lat="43.43151" lon="6.60785">
        <ele>65.7</ele>
        <time>2025-02-10T13:45:07Z</time>
      </trkpt>
      <trkpt lat="43.43156" lon="6.60797">
        <ele>64.6</ele>
        <time>2025-02-10T13:45:28Z</time>
      </trkpt>
      <trkpt lat="43.43164" lon="6.60804">
        <ele>64.4</ele>
        <time>2025-02-10T13:45:44Z</time>
      </trkpt>
      <trkpt lat="43.4317" lon="6.60813">
        <ele>63.8</ele>
        <time>2025-02-10T13:45:53Z</time>
      </trkpt>
      <trkpt lat="43.43176" lon="6.60824">
        <ele>63.8</ele>
        <time>2025-02-10T13:46:04Z</time>
      </trkpt>
      <trkpt lat="43.43181" lon="6.60834">
        <ele>63.5</ele>
        <time>2025-02-10T13:46:16Z</time>
      </trkpt>
      <trkpt lat="43.43188" lon="6.60843">
        <ele>63.5</ele>
        <time>2025-02-10T13:46:25Z</time>
      </trkpt>
      <trkpt lat="43.43195" lon="6.60851">
        <ele>63.1</ele>
        <time>2025-02-10T13:46:35Z</time>
      </trkpt>
      <trkpt lat="43.43202" lon="6.6086">
        <ele>63.4</ele>
        <time>2025-02-10T13:46:44Z</time>
      </trkpt>
      <trkpt lat="43.43207" lon="6.60871">
        <ele>63.2</ele>
        <time>2025-02-10T13:46:53Z</time>
      </trkpt>
      <trkpt lat="43.43214" lon="6.60879">
        <ele>63.1</ele>
        <time>2025-02-10T13:47:05Z</time>
      </trkpt>
      <trkpt lat="43.43221" lon="6.60887">
        <ele>62.9</ele>
        <time>2025-02-10T13:47:28Z</time>
      </trkpt>
      <trkpt lat="43.43227" lon="6.60898">
        <ele>63.4</ele>
        <time>2025-02-10T13:47:39Z</time>
      </trkpt>
      <trkpt lat="43.4323" lon="6.6091">
        <ele>63.1</ele>
        <time>2025-02-10T13:47:50Z</time>
      </trkpt>
      <trkpt lat="43.43233" lon="6.60922">
        <ele>64.2</ele>
        <time>2025-02-10T13:48:06Z</time>
      </trkpt>
      <trkpt lat="43.43238" lon="6.60932">
        <ele>65.1</ele>
        <time>2025-02-10T13:48:47Z</time>
      </trkpt>
      <trkpt lat="43.43241" lon="6.60945">
        <ele>64</ele>
        <time>2025-02-10T13:49:01Z</time>
      </trkpt>
      <trkpt lat="43.43247" lon="6.60955">
        <ele>63.4</ele>
        <time>2025-02-10T13:49:11Z</time>
      </trkpt>
      <trkpt lat="43.4324" lon="6.60964">
        <ele>61.3</ele>
        <time>2025-02-10T13:49:30Z</time>
      </trkpt>
      <trkpt lat="43.43239" lon="6.60977">
        <ele>60.7</ele>
        <time>2025-02-10T13:49:44Z</time>
      </trkpt>
      <trkpt lat="43.43241" lon="6.60989">
        <ele>60.4</ele>
        <time>2025-02-10T13:49:56Z</time>
      </trkpt>
      <trkpt lat="43.43243" lon="6.61001">
        <ele>61</ele>
        <time>2025-02-10T13:50:17Z</time>
      </trkpt>
      <trkpt lat="43.43246" lon="6.61013">
        <ele>60.3</ele>
        <time>2025-02-10T13:50:49Z</time>
      </trkpt>
      <trkpt lat="43.43248" lon="6.61026">
        <ele>60.4</ele>
        <time>2025-02-10T13:51:10Z</time>
      </trkpt>
      <trkpt lat="43.43252" lon="6.61037">
        <ele>61.7</ele>
        <time>2025-02-10T13:53:52Z</time>
      </trkpt>
      <trkpt lat="43.43256" lon="6.61048">
        <ele>63.5</ele>
        <time>2025-02-10T13:54:13Z</time>
      </trkpt>
      <trkpt lat="43.43258" lon="6.61061">
        <ele>64.5</ele>
        <time>2025-02-10T13:54:45Z</time>
      </trkpt>
      <trkpt lat="43.43261" lon="6.61073">
        <ele>65.5</ele>
        <time>2025-02-10T13:55:01Z</time>
      </trkpt>
      <trkpt lat="43.43263" lon="6.61086">
        <ele>64.8</ele>
        <time>2025-02-10T13:55:21Z</time>
      </trkpt>
      <trkpt lat="43.43261" lon="6.61098">
        <ele>62.6</ele>
        <time>2025-02-10T13:55:45Z</time>
      </trkpt>
      <trkpt lat="43.43266" lon="6.61109">
        <ele>60.7</ele>
        <time>2025-02-10T13:56:10Z</time>
      </trkpt>
      <trkpt lat="43.43274" lon="6.61116">
        <ele>60.1</ele>
        <time>2025-02-10T13:56:35Z</time>
      </trkpt>
      <trkpt lat="43.43281" lon="6.61123">
        <ele>59.9</ele>
        <time>2025-02-10T13:56:46Z</time>
      </trkpt>
      <trkpt lat="43.4329" lon="6.6113">
        <ele>59.9</ele>
        <time>2025-02-10T13:56:57Z</time>
      </trkpt>
      <trkpt lat="43.43298" lon="6.61138">
        <ele>59.9</ele>
        <time>2025-02-10T13:57:07Z</time>
      </trkpt>
      <trkpt lat="43.43305" lon="6.61145">
        <ele>59.6</ele>
        <time>2025-02-10T13:57:22Z</time>
      </trkpt>
      <trkpt lat="43.43314" lon="6.61146">
        <ele>59.2</ele>
        <time>2025-02-10T13:57:51Z</time>
      </trkpt>
      <trkpt lat="43.43322" lon="6.61155">
        <ele>58.5</ele>
        <time>2025-02-10T13:58:16Z</time>
      </trkpt>
      <trkpt lat="43.43326" lon="6.61167">
        <ele>58</ele>
        <time>2025-02-10T13:58:27Z</time>
      </trkpt>
      <trkpt lat="43.4333" lon="6.61178">
        <ele>57.6</ele>
        <time>2025-02-10T13:58:39Z</time>
      </trkpt>
      <trkpt lat="43.43332" lon="6.61191">
        <ele>58.1</ele>
        <time>2025-02-10T13:58:54Z</time>
      </trkpt>
      <trkpt lat="43.4333" lon="6.61203">
        <ele>59.5</ele>
        <time>2025-02-10T14:00:44Z</time>
      </trkpt>
      <trkpt lat="43.43328" lon="6.61216">
        <ele>59.4</ele>
        <time>2025-02-10T14:01:01Z</time>
      </trkpt>
      <trkpt lat="43.43328" lon="6.61229">
        <ele>59.3</ele>
        <time>2025-02-10T14:01:10Z</time>
      </trkpt>
      <trkpt lat="43.43332" lon="6.61242">
        <ele>58.9</ele>
        <time>2025-02-10T14:01:19Z</time>
      </trkpt>
      <trkpt lat="43.43336" lon="6.61253">
        <ele>56.7</ele>
        <time>2025-02-10T14:01:44Z</time>
      </trkpt>
      <trkpt lat="43.43338" lon="6.61266">
        <ele>55.8</ele>
        <time>2025-02-10T14:01:56Z</time>
      </trkpt>
      <trkpt lat="43.43341" lon="6.61278">
        <ele>55</ele>
        <time>2025-02-10T14:02:08Z</time>
      </trkpt>
      <trkpt lat="43.43342" lon="6.61291">
        <ele>54</ele>
        <time>2025-02-10T14:02:31Z</time>
      </trkpt>
      <trkpt lat="43.43342" lon="6.61304">
        <ele>53.6</ele>
        <time>2025-02-10T14:02:45Z</time>
      </trkpt>
      <trkpt lat="43.43345" lon="6.61315">
        <ele>53.4</ele>
        <time>2025-02-10T14:02:55Z</time>
      </trkpt>
      <trkpt lat="43.43349" lon="6.61327">
        <ele>53.5</ele>
        <time>2025-02-10T14:03:07Z</time>
      </trkpt>
      <trkpt lat="43.4335" lon="6.6134">
        <ele>53.1</ele>
        <time>2025-02-10T14:03:19Z</time>
      </trkpt>
      <trkpt lat="43.4335" lon="6.61353">
        <ele>52.7</ele>
        <time>2025-02-10T14:03:31Z</time>
      </trkpt>
      <trkpt lat="43.43352" lon="6.61365">
        <ele>52.5</ele>
        <time>2025-02-10T14:03:52Z</time>
      </trkpt>
      <trkpt lat="43.43355" lon="6.61377">
        <ele>52.5</ele>
        <time>2025-02-10T14:04:22Z</time>
      </trkpt>
      <trkpt lat="43.43353" lon="6.61389">
        <ele>52.5</ele>
        <time>2025-02-10T14:04:47Z</time>
      </trkpt>
      <trkpt lat="43.43356" lon="6.61402">
        <ele>52.8</ele>
        <time>2025-02-10T14:11:15Z</time>
      </trkpt>
      <trkpt lat="43.43357" lon="6.61415">
        <ele>52.7</ele>
        <time>2025-02-10T14:11:25Z</time>
      </trkpt>
      <trkpt lat="43.43357" lon="6.61427">
        <ele>52.6</ele>
        <time>2025-02-10T14:11:37Z</time>
      </trkpt>
      <trkpt lat="43.43354" lon="6.6144">
        <ele>53</ele>
        <time>2025-02-10T14:11:49Z</time>
      </trkpt>
      <trkpt lat="43.43351" lon="6.61452">
        <ele>54.1</ele>
        <time>2025-02-10T14:12:00Z</time>
      </trkpt>
      <trkpt lat="43.4335" lon="6.61465">
        <ele>54</ele>
        <time>2025-02-10T14:12:10Z</time>
      </trkpt>
      <trkpt lat="43.4335" lon="6.61478">
        <ele>53.5</ele>
        <time>2025-02-10T14:12:18Z</time>
      </trkpt>
      <trkpt lat="43.4335" lon="6.61491">
        <ele>53.1</ele>
        <time>2025-02-10T14:12:26Z</time>
      </trkpt>
      <trkpt lat="43.43351" lon="6.61504">
        <ele>52.9</ele>
        <time>2025-02-10T14:12:37Z</time>
      </trkpt>
      <trkpt lat="43.43353" lon="6.61516">
        <ele>51.9</ele>
        <time>2025-02-10T14:12:50Z</time>
      </trkpt>
      <trkpt lat="43.43356" lon="6.61528">
        <ele>50.9</ele>
        <time>2025-02-10T14:13:02Z</time>
      </trkpt>
      <trkpt lat="43.43356" lon="6.61541">
        <ele>50.8</ele>
        <time>2025-02-10T14:13:11Z</time>
      </trkpt>
      <trkpt lat="43.43356" lon="6.61554">
        <ele>50.8</ele>
        <time>2025-02-10T14:13:22Z</time>
      </trkpt>
      <trkpt lat="43.43355" lon="6.61568">
        <ele>50.5</ele>
        <time>2025-02-10T14:13:33Z</time>
      </trkpt>
      <trkpt lat="43.43356" lon="6.6158">
        <ele>50.2</ele>
        <time>2025-02-10T14:13:44Z</time>
      </trkpt>
      <trkpt lat="43.4336" lon="6.61592">
        <ele>49.6</ele>
        <time>2025-02-10T14:13:55Z</time>
      </trkpt>
      <trkpt lat="43.43363" lon="6.61603">
        <ele>49.2</ele>
        <time>2025-02-10T14:14:12Z</time>
      </trkpt>
      <trkpt lat="43.43362" lon="6.61617">
        <ele>50</ele>
        <time>2025-02-10T14:14:29Z</time>
      </trkpt>
      <trkpt lat="43.43362" lon="6.6163">
        <ele>50.8</ele>
        <time>2025-02-10T14:14:38Z</time>
      </trkpt>
      <trkpt lat="43.4336" lon="6.61642">
        <ele>50.7</ele>
        <time>2025-02-10T14:14:49Z</time>
      </trkpt>
      <trkpt lat="43.43359" lon="6.61655">
        <ele>48.9</ele>
        <time>2025-02-10T14:14:59Z</time>
      </trkpt>
      <trkpt lat="43.43363" lon="6.61668">
        <ele>48.7</ele>
        <time>2025-02-10T14:15:10Z</time>
      </trkpt>
      <trkpt lat="43.43365" lon="6.6168">
        <ele>48.4</ele>
        <time>2025-02-10T14:15:19Z</time>
      </trkpt>
      <trkpt lat="43.43367" lon="6.61694">
        <ele>47.6</ele>
        <time>2025-02-10T14:15:31Z</time>
      </trkpt>
      <trkpt lat="43.43369" lon="6.61706">
        <ele>47.5</ele>
        <time>2025-02-10T14:15:47Z</time>
      </trkpt>
      <trkpt lat="43.43369" lon="6.61719">
        <ele>46.7</ele>
        <time>2025-02-10T14:18:17Z</time>
      </trkpt>
      <trkpt lat="43.43372" lon="6.61732">
        <ele>46.7</ele>
        <time>2025-02-10T14:18:30Z</time>
      </trkpt>
      <trkpt lat="43.43379" lon="6.61742">
        <ele>46.9</ele>
        <time>2025-02-10T14:18:44Z</time>
      </trkpt>
      <trkpt lat="43.43379" lon="6.61754">
        <ele>46.3</ele>
        <time>2025-02-10T14:19:00Z</time>
      </trkpt>
      <trkpt lat="43.43377" lon="6.61768">
        <ele>45.4</ele>
        <time>2025-02-10T14:20:05Z</time>
      </trkpt>
      <trkpt lat="43.43374" lon="6.6178">
        <ele>45.6</ele>
        <time>2025-02-10T14:24:28Z</time>
      </trkpt>
      <trkpt lat="43.43378" lon="6.61792">
        <ele>45.6</ele>
        <time>2025-02-10T14:24:42Z</time>
      </trkpt>
      <trkpt lat="43.43381" lon="6.61804">
        <ele>46.2</ele>
        <time>2025-02-10T14:25:02Z</time>
      </trkpt>
      <trkpt lat="43.43387" lon="6.61814">
        <ele>46.8</ele>
        <time>2025-02-10T14:25:31Z</time>
      </trkpt>
      <trkpt lat="43.4339" lon="6.61827">
        <ele>46.6</ele>
        <time>2025-02-10T14:25:43Z</time>
      </trkpt>
      <trkpt lat="43.43393" lon="6.6184">
        <ele>46.4</ele>
        <time>2025-02-10T14:25:52Z</time>
      </trkpt>
      <trkpt lat="43.43395" lon="6.61853">
        <ele>46</ele>
        <time>2025-02-10T14:26:01Z</time>
      </trkpt>
      <trkpt lat="43.43398" lon="6.61866">
        <ele>45.8</ele>
        <time>2025-02-10T14:26:11Z</time>
      </trkpt>
      <trkpt lat="43.43399" lon="6.61878">
        <ele>45.7</ele>
        <time>2025-02-10T14:26:20Z</time>
      </trkpt>
      <trkpt lat="43.43401" lon="6.61892">
        <ele>45.4</ele>
        <time>2025-02-10T14:26:29Z</time>
      </trkpt>
      <trkpt lat="43.43403" lon="6.61904">
        <ele>45.1</ele>
        <time>2025-02-10T14:26:40Z</time>
      </trkpt>
      <trkpt lat="43.43406" lon="6.61917">
        <ele>45.3</ele>
        <time>2025-02-10T14:26:50Z</time>
      </trkpt>
      <trkpt lat="43.43405" lon="6.6193">
        <ele>45.9</ele>
        <time>2025-02-10T14:27:01Z</time>
      </trkpt>
      <trkpt lat="43.43405" lon="6.61944">
        <ele>46.3</ele>
        <time>2025-02-10T14:27:11Z</time>
      </trkpt>
      <trkpt lat="43.43405" lon="6.61956">
        <ele>46.5</ele>
        <time>2025-02-10T14:27:21Z</time>
      </trkpt>
      <trkpt lat="43.43402" lon="6.61969">
        <ele>46.5</ele>
        <time>2025-02-10T14:27:30Z</time>
      </trkpt>
      <trkpt lat="43.43398" lon="6.61981">
        <ele>46.8</ele>
        <time>2025-02-10T14:27:40Z</time>
      </trkpt>
      <trkpt lat="43.43393" lon="6.61992">
        <ele>46.9</ele>
        <time>2025-02-10T14:27:52Z</time>
      </trkpt>
      <trkpt lat="43.43387" lon="6.62001">
        <ele>46.7</ele>
        <time>2025-02-10T14:28:01Z</time>
      </trkpt>
      <trkpt lat="43.4338" lon="6.62011">
        <ele>46.4</ele>
        <time>2025-02-10T14:28:09Z</time>
      </trkpt>
      <trkpt lat="43.43372" lon="6.62018">
        <ele>46.1</ele>
        <time>2025-02-10T14:28:19Z</time>
      </trkpt>
      <trkpt lat="43.43365" lon="6.62026">
        <ele>46.1</ele>
        <time>2025-02-10T14:28:28Z</time>
      </trkpt>
      <trkpt lat="43.43358" lon="6.62035">
        <ele>46.4</ele>
        <time>2025-02-10T14:28:57Z</time>
      </trkpt>
      <trkpt lat="43.4335" lon="6.6204">
        <ele>46.3</ele>
        <time>2025-02-10T14:29:07Z</time>
      </trkpt>
      <trkpt lat="43.43341" lon="6.62044">
        <ele>46.1</ele>
        <time>2025-02-10T14:29:19Z</time>
      </trkpt>
      <trkpt lat="43.43332" lon="6.62049">
        <ele>45.9</ele>
        <time>2025-02-10T14:29:30Z</time>
      </trkpt>
      <trkpt lat="43.43326" lon="6.62058">
        <ele>45</ele>
        <time>2025-02-10T14:30:14Z</time>
      </trkpt>
      <trkpt lat="43.43317" lon="6.62062">
        <ele>44.9</ele>
        <time>2025-02-10T14:30:32Z</time>
      </trkpt>
      <trkpt lat="43.43308" lon="6.62069">
        <ele>44.8</ele>
        <time>2025-02-10T14:30:48Z</time>
      </trkpt>
      <trkpt lat="43.43303" lon="6.6208">
        <ele>43.5</ele>
        <time>2025-02-10T14:31:03Z</time>
      </trkpt>
      <trkpt lat="43.43296" lon="6.62089">
        <ele>42.7</ele>
        <time>2025-02-10T14:31:16Z</time>
      </trkpt>
      <trkpt lat="43.43292" lon="6.62101">
        <ele>41.6</ele>
        <time>2025-02-10T14:31:31Z</time>
      </trkpt>
      <trkpt lat="43.4329" lon="6.62113">
        <ele>41.1</ele>
        <time>2025-02-10T14:31:44Z</time>
      </trkpt>
      <trkpt lat="43.43286" lon="6.62125">
        <ele>40.8</ele>
        <time>2025-02-10T14:31:54Z</time>
      </trkpt>
      <trkpt lat="43.43283" lon="6.62137">
        <ele>39.3</ele>
        <time>2025-02-10T14:32:05Z</time>
      </trkpt>
      <trkpt lat="43.43282" lon="6.62149">
        <ele>38.7</ele>
        <time>2025-02-10T14:32:14Z</time>
      </trkpt>
      <trkpt lat="43.43284" lon="6.62161">
        <ele>38.5</ele>
        <time>2025-02-10T14:32:29Z</time>
      </trkpt>
      <trkpt lat="43.4329" lon="6.62172">
        <ele>37.7</ele>
        <time>2025-02-10T14:32:41Z</time>
      </trkpt>
      <trkpt lat="43.43286" lon="6.62183">
        <ele>37.5</ele>
        <time>2025-02-10T14:32:54Z</time>
      </trkpt>
      <trkpt lat="43.43279" lon="6.62193">
        <ele>37.5</ele>
        <time>2025-02-10T14:33:06Z</time>
      </trkpt>
      <trkpt lat="43.43273" lon="6.62203">
        <ele>37.6</ele>
        <time>2025-02-10T14:33:16Z</time>
      </trkpt>
      <trkpt lat="43.43275" lon="6.62215">
        <ele>37.8</ele>
        <time>2025-02-10T14:33:34Z</time>
      </trkpt>
      <trkpt lat="43.43267" lon="6.62222">
        <ele>38.3</ele>
        <time>2025-02-10T14:35:48Z</time>
      </trkpt>
      <trkpt lat="43.43263" lon="6.62234">
        <ele>38.4</ele>
        <time>2025-02-10T14:36:01Z</time>
      </trkpt>
      <trkpt lat="43.4327" lon="6.62244">
        <ele>38.8</ele>
        <time>2025-02-10T14:36:23Z</time>
      </trkpt>
      <trkpt lat="43.43276" lon="6.62253">
        <ele>39.5</ele>
        <time>2025-02-10T14:36:39Z</time>
      </trkpt>
      <trkpt lat="43.43282" lon="6.62262">
        <ele>42.4</ele>
        <time>2025-02-10T14:37:08Z</time>
      </trkpt>
      <trkpt lat="43.43291" lon="6.62258">
        <ele>42.4</ele>
        <time>2025-02-10T14:39:14Z</time>
      </trkpt>
      <trkpt lat="43.43297" lon="6.62268">
        <ele>42.5</ele>
        <time>2025-02-10T14:42:40Z</time>
      </trkpt>
      <trkpt lat="43.433" lon="6.6228">
        <ele>42.5</ele>
        <time>2025-02-10T14:42:52Z</time>
      </trkpt>
      <trkpt lat="43.43304" lon="6.62292">
        <ele>42.3</ele>
        <time>2025-02-10T14:43:04Z</time>
      </trkpt>
      <trkpt lat="43.43313" lon="6.62289">
        <ele>41.8</ele>
        <time>2025-02-10T14:43:16Z</time>
      </trkpt>
      <trkpt lat="43.43321" lon="6.62283">
        <ele>41.5</ele>
        <time>2025-02-10T14:43:30Z</time>
      </trkpt>
      <trkpt lat="43.4333" lon="6.62279">
        <ele>41.3</ele>
        <time>2025-02-10T14:43:38Z</time>
      </trkpt>
      <trkpt lat="43.43338" lon="6.62285">
        <ele>40.7</ele>
        <time>2025-02-10T14:43:53Z</time>
      </trkpt>
      <trkpt lat="43.43346" lon="6.62292">
        <ele>40.3</ele>
        <time>2025-02-10T14:44:04Z</time>
      </trkpt>
      <trkpt lat="43.43354" lon="6.62299">
        <ele>40.2</ele>
        <time>2025-02-10T14:44:14Z</time>
      </trkpt>
      <trkpt lat="43.43363" lon="6.62301">
        <ele>40.3</ele>
        <time>2025-02-10T14:44:22Z</time>
      </trkpt>
      <trkpt lat="43.43373" lon="6.62303">
        <ele>40.3</ele>
        <time>2025-02-10T14:44:32Z</time>
      </trkpt>
      <trkpt lat="43.43382" lon="6.62306">
        <ele>40.3</ele>
        <time>2025-02-10T14:44:41Z</time>
      </trkpt>
      <trkpt lat="43.43392" lon="6.62308">
        <ele>40.6</ele>
        <time>2025-02-10T14:44:50Z</time>
      </trkpt>
      <trkpt lat="43.43401" lon="6.62313">
        <ele>40.9</ele>
        <time>2025-02-10T14:45:00Z</time>
      </trkpt>
      <trkpt lat="43.43406" lon="6.62323">
        <ele>41.7</ele>
        <time>2025-02-10T14:45:10Z</time>
      </trkpt>
      <trkpt lat="43.43406" lon="6.62336">
        <ele>42.2</ele>
        <time>2025-02-10T14:45:20Z</time>
      </trkpt>
      <trkpt lat="43.43406" lon="6.6235">
        <ele>41.9</ele>
        <time>2025-02-10T14:45:31Z</time>
      </trkpt>
      <trkpt lat="43.43411" lon="6.62361">
        <ele>41.4</ele>
        <time>2025-02-10T14:45:58Z</time>
      </trkpt>
      <trkpt lat="43.4342" lon="6.62359">
        <ele>40.9</ele>
        <time>2025-02-10T14:46:19Z</time>
      </trkpt>
      <trkpt lat="43.43424" lon="6.62347">
        <ele>41.2</ele>
        <time>2025-02-10T14:46:31Z</time>
      </trkpt>
      <trkpt lat="43.4343" lon="6.62338">
        <ele>41.6</ele>
        <time>2025-02-10T14:46:44Z</time>
      </trkpt>
      <trkpt lat="43.43438" lon="6.6233">
        <ele>42</ele>
        <time>2025-02-10T14:46:53Z</time>
      </trkpt>
      <trkpt lat="43.43446" lon="6.62325">
        <ele>42.3</ele>
        <time>2025-02-10T14:47:03Z</time>
      </trkpt>
      <trkpt lat="43.43456" lon="6.62322">
        <ele>42.3</ele>
        <time>2025-02-10T14:47:13Z</time>
      </trkpt>
      <trkpt lat="43.43464" lon="6.62316">
        <ele>42</ele>
        <time>2025-02-10T14:47:31Z</time>
      </trkpt>
      <trkpt lat="43.43473" lon="6.62312">
        <ele>41.7</ele>
        <time>2025-02-10T14:47:40Z</time>
      </trkpt>
      <trkpt lat="43.43482" lon="6.62308">
        <ele>41.5</ele>
        <time>2025-02-10T14:47:48Z</time>
      </trkpt>
      <trkpt lat="43.43492" lon="6.62305">
        <ele>41.2</ele>
        <time>2025-02-10T14:47:57Z</time>
      </trkpt>
      <trkpt lat="43.435" lon="6.62302">
        <ele>41</ele>
        <time>2025-02-10T14:48:05Z</time>
      </trkpt>
      <trkpt lat="43.4351" lon="6.62298">
        <ele>40.4</ele>
        <time>2025-02-10T14:48:15Z</time>
      </trkpt>
      <trkpt lat="43.43518" lon="6.62292">
        <ele>40.4</ele>
        <time>2025-02-10T14:48:26Z</time>
      </trkpt>
      <trkpt lat="43.43527" lon="6.62287">
        <ele>40.1</ele>
        <time>2025-02-10T14:48:35Z</time>
      </trkpt>
      <trkpt lat="43.43535" lon="6.62279">
        <ele>39.8</ele>
        <time>2025-02-10T14:48:44Z</time>
      </trkpt>
      <trkpt lat="43.43543" lon="6.62272">
        <ele>39.5</ele>
        <time>2025-02-10T14:48:59Z</time>
      </trkpt>
      <trkpt lat="43.43551" lon="6.62265">
        <ele>39.3</ele>
        <time>2025-02-10T14:49:08Z</time>
      </trkpt>
      <trkpt lat="43.43558" lon="6.62259">
        <ele>38.6</ele>
        <time>2025-02-10T14:49:18Z</time>
      </trkpt>
      <trkpt lat="43.43566" lon="6.62253">
        <ele>38.4</ele>
        <time>2025-02-10T14:49:27Z</time>
      </trkpt>
      <trkpt lat="43.43575" lon="6.62245">
        <ele>38.1</ele>
        <time>2025-02-10T14:49:38Z</time>
      </trkpt>
      <trkpt lat="43.43582" lon="6.62237">
        <ele>37.7</ele>
        <time>2025-02-10T14:49:48Z</time>
      </trkpt>
      <trkpt lat="43.4359" lon="6.62231">
        <ele>37.2</ele>
        <time>2025-02-10T14:49:58Z</time>
      </trkpt>
      <trkpt lat="43.43599" lon="6.62227">
        <ele>36.7</ele>
        <time>2025-02-10T14:50:09Z</time>
      </trkpt>
      <trkpt lat="43.43608" lon="6.6223">
        <ele>36</ele>
        <time>2025-02-10T14:50:28Z</time>
      </trkpt>
      <trkpt lat="43.43617" lon="6.62231">
        <ele>35.8</ele>
        <time>2025-02-10T14:50:52Z</time>
      </trkpt>
      <trkpt lat="43.43627" lon="6.6223">
        <ele>35.5</ele>
        <time>2025-02-10T14:51:03Z</time>
      </trkpt>
      <trkpt lat="43.43636" lon="6.62226">
        <ele>34.8</ele>
        <time>2025-02-10T14:51:13Z</time>
      </trkpt>
      <trkpt lat="43.43645" lon="6.62224">
        <ele>34.1</ele>
        <time>2025-02-10T14:51:22Z</time>
      </trkpt>
      <trkpt lat="43.43655" lon="6.62226">
        <ele>33.5</ele>
        <time>2025-02-10T14:51:32Z</time>
      </trkpt>
      <trkpt lat="43.43662" lon="6.62232">
        <ele>33</ele>
        <time>2025-02-10T14:51:42Z</time>
      </trkpt>
      <trkpt lat="43.4367" lon="6.62239">
        <ele>32.4</ele>
        <time>2025-02-10T14:51:51Z</time>
      </trkpt>
      <trkpt lat="43.43679" lon="6.62245">
        <ele>32</ele>
        <time>2025-02-10T14:52:00Z</time>
      </trkpt>
      <trkpt lat="43.43688" lon="6.62248">
        <ele>31.4</ele>
        <time>2025-02-10T14:52:13Z</time>
      </trkpt>
      <trkpt lat="43.43697" lon="6.62254">
        <ele>30.8</ele>
        <time>2025-02-10T14:52:31Z</time>
      </trkpt>
      <trkpt lat="43.43706" lon="6.62258">
        <ele>30.6</ele>
        <time>2025-02-10T14:52:40Z</time>
      </trkpt>
      <trkpt lat="43.43716" lon="6.6226">
        <ele>30.3</ele>
        <time>2025-02-10T14:52:47Z</time>
      </trkpt>
      <trkpt lat="43.43726" lon="6.62263">
        <ele>29.9</ele>
        <time>2025-02-10T14:52:56Z</time>
      </trkpt>
      <trkpt lat="43.43734" lon="6.62267">
        <ele>29.2</ele>
        <time>2025-02-10T14:53:08Z</time>
      </trkpt>
      <trkpt lat="43.43743" lon="6.62272">
        <ele>28.4</ele>
        <time>2025-02-10T14:53:17Z</time>
      </trkpt>
      <trkpt lat="43.43752" lon="6.62275">
        <ele>27.5</ele>
        <time>2025-02-10T14:53:26Z</time>
      </trkpt>
      <trkpt lat="43.43761" lon="6.62279">
        <ele>26.5</ele>
        <time>2025-02-10T14:53:37Z</time>
      </trkpt>
      <trkpt lat="43.4377" lon="6.62282">
        <ele>25.8</ele>
        <time>2025-02-10T14:53:49Z</time>
      </trkpt>
      <trkpt lat="43.43779" lon="6.62286">
        <ele>25.4</ele>
        <time>2025-02-10T14:54:00Z</time>
      </trkpt>
      <trkpt lat="43.43788" lon="6.62286">
        <ele>25</ele>
        <time>2025-02-10T14:54:18Z</time>
      </trkpt>
      <trkpt lat="43.43797" lon="6.62286">
        <ele>25.1</ele>
        <time>2025-02-10T14:55:40Z</time>
      </trkpt>
      <trkpt lat="43.43806" lon="6.62287">
        <ele>25.2</ele>
        <time>2025-02-10T14:55:57Z</time>
      </trkpt>
      <trkpt lat="43.43816" lon="6.62289">
        <ele>25.2</ele>
        <time>2025-02-10T14:56:08Z</time>
      </trkpt>
      <trkpt lat="43.43825" lon="6.6229">
        <ele>25.7</ele>
        <time>2025-02-10T14:56:20Z</time>
      </trkpt>
      <trkpt lat="43.43834" lon="6.6229">
        <ele>26.6</ele>
        <time>2025-02-10T14:56:37Z</time>
      </trkpt>
      <trkpt lat="43.43844" lon="6.62292">
        <ele>27.5</ele>
        <time>2025-02-10T14:57:07Z</time>
      </trkpt>
      <trkpt lat="43.43853" lon="6.62295">
        <ele>29.3</ele>
        <time>2025-02-10T14:57:22Z</time>
      </trkpt>
      <trkpt lat="43.43862" lon="6.62298">
        <ele>30.2</ele>
        <time>2025-02-10T14:57:38Z</time>
      </trkpt>
      <trkpt lat="43.43872" lon="6.62299">
        <ele>31</ele>
        <time>2025-02-10T14:57:51Z</time>
      </trkpt>
      <trkpt lat="43.43881" lon="6.62299">
        <ele>31.8</ele>
        <time>2025-02-10T14:58:03Z</time>
      </trkpt>
      <trkpt lat="43.4389" lon="6.62304">
        <ele>32.4</ele>
        <time>2025-02-10T14:58:19Z</time>
      </trkpt>
      <trkpt lat="43.43897" lon="6.62311">
        <ele>33.3</ele>
        <time>2025-02-10T14:58:32Z</time>
      </trkpt>
      <trkpt lat="43.43906" lon="6.62314">
        <ele>34.1</ele>
        <time>2025-02-10T14:58:44Z</time>
      </trkpt>
      <trkpt lat="43.43915" lon="6.62309">
        <ele>34.9</ele>
        <time>2025-02-10T14:58:56Z</time>
      </trkpt>
      <trkpt lat="43.43924" lon="6.62309">
        <ele>36.2</ele>
        <time>2025-02-10T14:59:09Z</time>
      </trkpt>
      <trkpt lat="43.43934" lon="6.6231">
        <ele>37</ele>
        <time>2025-02-10T14:59:21Z</time>
      </trkpt>
      <trkpt lat="43.43942" lon="6.62316">
        <ele>37.6</ele>
        <time>2025-02-10T14:59:39Z</time>
      </trkpt>
      <trkpt lat="43.4395" lon="6.62323">
        <ele>38.7</ele>
        <time>2025-02-10T14:59:58Z</time>
      </trkpt>
      <trkpt lat="43.43959" lon="6.62326">
        <ele>39.8</ele>
        <time>2025-02-10T15:00:20Z</time>
      </trkpt>
      <trkpt lat="43.43968" lon="6.62326">
        <ele>40.2</ele>
        <time>2025-02-10T15:00:44Z</time>
      </trkpt>
      <trkpt lat="43.43977" lon="6.6232">
        <ele>40.5</ele>
        <time>2025-02-10T15:00:55Z</time>
      </trkpt>
      <trkpt lat="43.43985" lon="6.62315">
        <ele>40.9</ele>
        <time>2025-02-10T15:01:06Z</time>
      </trkpt>
      <trkpt lat="43.43995" lon="6.62317">
        <ele>41.2</ele>
        <time>2025-02-10T15:01:15Z</time>
      </trkpt>
      <trkpt lat="43.44004" lon="6.62321">
        <ele>42</ele>
        <time>2025-02-10T15:01:25Z</time>
      </trkpt>
      <trkpt lat="43.44013" lon="6.62324">
        <ele>43.1</ele>
        <time>2025-02-10T15:02:03Z</time>
      </trkpt>
      <trkpt lat="43.44022" lon="6.62331">
        <ele>43.4</ele>
        <time>2025-02-10T15:02:15Z</time>
      </trkpt>
      <trkpt lat="43.4403" lon="6.62337">
        <ele>43.9</ele>
        <time>2025-02-10T15:02:26Z</time>
      </trkpt>
      <trkpt lat="43.44039" lon="6.62339">
        <ele>44.6</ele>
        <time>2025-02-10T15:03:07Z</time>
      </trkpt>
      <trkpt lat="43.44048" lon="6.62344">
        <ele>44.9</ele>
        <time>2025-02-10T15:03:23Z</time>
      </trkpt>
      <trkpt lat="43.44056" lon="6.6235">
        <ele>45.3</ele>
        <time>2025-02-10T15:03:35Z</time>
      </trkpt>
      <trkpt lat="43.44065" lon="6.62355">
        <ele>46</ele>
        <time>2025-02-10T15:03:47Z</time>
      </trkpt>
      <trkpt lat="43.44074" lon="6.62362">
        <ele>46.8</ele>
        <time>2025-02-10T15:03:59Z</time>
      </trkpt>
      <trkpt lat="43.44078" lon="6.62373">
        <ele>47.6</ele>
        <time>2025-02-10T15:04:11Z</time>
      </trkpt>
      <trkpt lat="43.44084" lon="6.62382">
        <ele>48.2</ele>
        <time>2025-02-10T15:04:30Z</time>
      </trkpt>
      <trkpt lat="43.4408" lon="6.62395">
        <ele>48.6</ele>
        <time>2025-02-10T15:05:09Z</time>
      </trkpt>
      <trkpt lat="43.44076" lon="6.62406">
        <ele>49.2</ele>
        <time>2025-02-10T15:05:20Z</time>
      </trkpt>
      <trkpt lat="43.44073" lon="6.62419">
        <ele>50.3</ele>
        <time>2025-02-10T15:05:32Z</time>
      </trkpt>
      <trkpt lat="43.44071" lon="6.62431">
        <ele>51.3</ele>
        <time>2025-02-10T15:05:45Z</time>
      </trkpt>
      <trkpt lat="43.4407" lon="6.62445">
        <ele>52.2</ele>
        <time>2025-02-10T15:06:00Z</time>
      </trkpt>
      <trkpt lat="43.44066" lon="6.62456">
        <ele>53.4</ele>
        <time>2025-02-10T15:06:14Z</time>
      </trkpt>
      <trkpt lat="43.44065" lon="6.62469">
        <ele>54.9</ele>
        <time>2025-02-10T15:06:31Z</time>
      </trkpt>
      <trkpt lat="43.44064" lon="6.62482">
        <ele>55.7</ele>
        <time>2025-02-10T15:07:04Z</time>
      </trkpt>
      <trkpt lat="43.44061" lon="6.62494">
        <ele>56.9</ele>
        <time>2025-02-10T15:07:21Z</time>
      </trkpt>
      <trkpt lat="43.44058" lon="6.62506">
        <ele>57.9</ele>
        <time>2025-02-10T15:07:32Z</time>
      </trkpt>
      <trkpt lat="43.44054" lon="6.62518">
        <ele>58.9</ele>
        <time>2025-02-10T15:07:45Z</time>
      </trkpt>
      <trkpt lat="43.44052" lon="6.6253">
        <ele>59.6</ele>
        <time>2025-02-10T15:07:56Z</time>
      </trkpt>
      <trkpt lat="43.44049" lon="6.62542">
        <ele>60.9</ele>
        <time>2025-02-10T15:08:09Z</time>
      </trkpt>
      <trkpt lat="43.44047" lon="6.62555">
        <ele>62.5</ele>
        <time>2025-02-10T15:08:22Z</time>
      </trkpt>
      <trkpt lat="43.44044" lon="6.62567">
        <ele>64.3</ele>
        <time>2025-02-10T15:08:38Z</time>
      </trkpt>
      <trkpt lat="43.44039" lon="6.62578">
        <ele>64.5</ele>
        <time>2025-02-10T15:08:49Z</time>
      </trkpt>
      <trkpt lat="43.44036" lon="6.6259">
        <ele>65.5</ele>
        <time>2025-02-10T15:09:01Z</time>
      </trkpt>
      <trkpt lat="43.44033" lon="6.62602">
        <ele>66.4</ele>
        <time>2025-02-10T15:09:11Z</time>
      </trkpt>
      <trkpt lat="43.44032" lon="6.62615">
        <ele>67.2</ele>
        <time>2025-02-10T15:09:21Z</time>
      </trkpt>
      <trkpt lat="43.44033" lon="6.62627">
        <ele>68.4</ele>
        <time>2025-02-10T15:09:31Z</time>
      </trkpt>
      <trkpt lat="43.44031" lon="6.6264">
        <ele>69.4</ele>
        <time>2025-02-10T15:09:42Z</time>
      </trkpt>
      <trkpt lat="43.44027" lon="6.62651">
        <ele>70.1</ele>
        <time>2025-02-10T15:09:54Z</time>
      </trkpt>
      <trkpt lat="43.44026" lon="6.62664">
        <ele>70.6</ele>
        <time>2025-02-10T15:10:05Z</time>
      </trkpt>
      <trkpt lat="43.44027" lon="6.62676">
        <ele>71.2</ele>
        <time>2025-02-10T15:10:26Z</time>
      </trkpt>
      <trkpt lat="43.44031" lon="6.62687">
        <ele>71.7</ele>
        <time>2025-02-10T15:10:38Z</time>
      </trkpt>
      <trkpt lat="43.44037" lon="6.62698">
        <ele>72.3</ele>
        <time>2025-02-10T15:10:49Z</time>
      </trkpt>
      <trkpt lat="43.44041" lon="6.6271">
        <ele>72.5</ele>
        <time>2025-02-10T15:11:00Z</time>
      </trkpt>
      <trkpt lat="43.44044" lon="6.62722">
        <ele>73.4</ele>
        <time>2025-02-10T15:11:12Z</time>
      </trkpt>
      <trkpt lat="43.44046" lon="6.62735">
        <ele>74.4</ele>
        <time>2025-02-10T15:11:24Z</time>
      </trkpt>
      <trkpt lat="43.44052" lon="6.62744">
        <ele>75.1</ele>
        <time>2025-02-10T15:11:35Z</time>
      </trkpt>
      <trkpt lat="43.44061" lon="6.62751">
        <ele>75.8</ele>
        <time>2025-02-10T15:11:46Z</time>
      </trkpt>
      <trkpt lat="43.44067" lon="6.6276">
        <ele>76.5</ele>
        <time>2025-02-10T15:11:57Z</time>
      </trkpt>
      <trkpt lat="43.44072" lon="6.62771">
        <ele>77.1</ele>
        <time>2025-02-10T15:12:08Z</time>
      </trkpt>
      <trkpt lat="43.44076" lon="6.62783">
        <ele>77</ele>
        <time>2025-02-10T15:12:21Z</time>
      </trkpt>
      <trkpt lat="43.4408" lon="6.62795">
        <ele>76.6</ele>
        <time>2025-02-10T15:12:40Z</time>
      </trkpt>
      <trkpt lat="43.44088" lon="6.62802">
        <ele>76.3</ele>
        <time>2025-02-10T15:12:51Z</time>
      </trkpt>
      <trkpt lat="43.44094" lon="6.62812">
        <ele>76.3</ele>
        <time>2025-02-10T15:13:15Z</time>
      </trkpt>
      <trkpt lat="43.44092" lon="6.62824">
        <ele>75.1</ele>
        <time>2025-02-10T15:14:46Z</time>
      </trkpt>
      <trkpt lat="43.44089" lon="6.62836">
        <ele>73.4</ele>
        <time>2025-02-10T15:15:05Z</time>
      </trkpt>
      <trkpt lat="43.4409" lon="6.62849">
        <ele>71.8</ele>
        <time>2025-02-10T15:15:20Z</time>
      </trkpt>
      <trkpt lat="43.44088" lon="6.62862">
        <ele>70</ele>
        <time>2025-02-10T15:15:39Z</time>
      </trkpt>
      <trkpt lat="43.44088" lon="6.62874">
        <ele>68.9</ele>
        <time>2025-02-10T15:15:50Z</time>
      </trkpt>
      <trkpt lat="43.44088" lon="6.62887">
        <ele>67.8</ele>
        <time>2025-02-10T15:16:06Z</time>
      </trkpt>
      <trkpt lat="43.4409" lon="6.62899">
        <ele>66.6</ele>
        <time>2025-02-10T15:16:18Z</time>
      </trkpt>
      <trkpt lat="43.44094" lon="6.62911">
        <ele>65.1</ele>
        <time>2025-02-10T15:16:34Z</time>
      </trkpt>
      <trkpt lat="43.44096" lon="6.62924">
        <ele>64.3</ele>
        <time>2025-02-10T15:16:44Z</time>
      </trkpt>
      <trkpt lat="43.44097" lon="6.62936">
        <ele>63.4</ele>
        <time>2025-02-10T15:16:57Z</time>
      </trkpt>
      <trkpt lat="43.44099" lon="6.62949">
        <ele>62.6</ele>
        <time>2025-02-10T15:17:07Z</time>
      </trkpt>
      <trkpt lat="43.441" lon="6.62961">
        <ele>61.6</ele>
        <time>2025-02-10T15:17:17Z</time>
      </trkpt>
      <trkpt lat="43.44099" lon="6.62974">
        <ele>60.5</ele>
        <time>2025-02-10T15:17:29Z</time>
      </trkpt>
      <trkpt lat="43.44098" lon="6.62988">
        <ele>59.1</ele>
        <time>2025-02-10T15:17:40Z</time>
      </trkpt>
      <trkpt lat="43.44099" lon="6.63">
        <ele>58.3</ele>
        <time>2025-02-10T15:17:55Z</time>
      </trkpt>
      <trkpt lat="43.44098" lon="6.63014">
        <ele>59.1</ele>
        <time>2025-02-10T15:18:10Z</time>
      </trkpt>
      <trkpt lat="43.44099" lon="6.63026">
        <ele>60</ele>
        <time>2025-02-10T15:18:21Z</time>
      </trkpt>
      <trkpt lat="43.44096" lon="6.63039">
        <ele>60</ele>
        <time>2025-02-10T15:18:33Z</time>
      </trkpt>
      <trkpt lat="43.44096" lon="6.63052">
        <ele>58.7</ele>
        <time>2025-02-10T15:18:53Z</time>
      </trkpt>
      <trkpt lat="43.44093" lon="6.63064">
        <ele>57.6</ele>
        <time>2025-02-10T15:20:29Z</time>
      </trkpt>
      <trkpt lat="43.44097" lon="6.63076">
        <ele>57.3</ele>
        <time>2025-02-10T15:20:52Z</time>
      </trkpt>
      <trkpt lat="43.44102" lon="6.63088">
        <ele>56.8</ele>
        <time>2025-02-10T15:21:05Z</time>
      </trkpt>
      <trkpt lat="43.44104" lon="6.631">
        <ele>56.9</ele>
        <time>2025-02-10T15:21:16Z</time>
      </trkpt>
      <trkpt lat="43.44105" lon="6.63113">
        <ele>57</ele>
        <time>2025-02-10T15:21:26Z</time>
      </trkpt>
      <trkpt lat="43.44103" lon="6.63126">
        <ele>57</ele>
        <time>2025-02-10T15:21:51Z</time>
      </trkpt>
      <trkpt lat="43.44099" lon="6.63137">
        <ele>57.1</ele>
        <time>2025-02-10T15:22:03Z</time>
      </trkpt>
      <trkpt lat="43.44093" lon="6.63147">
        <ele>57</ele>
        <time>2025-02-10T15:22:14Z</time>
      </trkpt>
      <trkpt lat="43.44088" lon="6.63158">
        <ele>56.8</ele>
        <time>2025-02-10T15:22:25Z</time>
      </trkpt>
      <trkpt lat="43.44084" lon="6.6317">
        <ele>56.7</ele>
        <time>2025-02-10T15:22:35Z</time>
      </trkpt>
      <trkpt lat="43.44082" lon="6.63183">
        <ele>56.7</ele>
        <time>2025-02-10T15:22:44Z</time>
      </trkpt>
      <trkpt lat="43.4408" lon="6.63195">
        <ele>56.5</ele>
        <time>2025-02-10T15:22:53Z</time>
      </trkpt>
      <trkpt lat="43.44075" lon="6.63206">
        <ele>56.3</ele>
        <time>2025-02-10T15:23:04Z</time>
      </trkpt>
      <trkpt lat="43.44069" lon="6.63215">
        <ele>55.9</ele>
        <time>2025-02-10T15:23:16Z</time>
      </trkpt>
      <trkpt lat="43.44062" lon="6.63225">
        <ele>55.6</ele>
        <time>2025-02-10T15:23:26Z</time>
      </trkpt>
      <trkpt lat="43.44055" lon="6.63232">
        <ele>55.8</ele>
        <time>2025-02-10T15:23:35Z</time>
      </trkpt>
      <trkpt lat="43.44046" lon="6.63239">
        <ele>55.9</ele>
        <time>2025-02-10T15:23:43Z</time>
      </trkpt>
      <trkpt lat="43.44038" lon="6.63245">
        <ele>56.1</ele>
        <time>2025-02-10T15:23:50Z</time>
      </trkpt>
      <trkpt lat="43.44031" lon="6.63254">
        <ele>56.2</ele>
        <time>2025-02-10T15:23:59Z</time>
      </trkpt>
      <trkpt lat="43.44023" lon="6.63261">
        <ele>55.8</ele>
        <time>2025-02-10T15:24:14Z</time>
      </trkpt>
      <trkpt lat="43.44016" lon="6.63269">
        <ele>55.5</ele>
        <time>2025-02-10T15:24:24Z</time>
      </trkpt>
      <trkpt lat="43.44009" lon="6.63278">
        <ele>55</ele>
        <time>2025-02-10T15:24:33Z</time>
      </trkpt>
      <trkpt lat="43.44008" lon="6.63291">
        <ele>54.8</ele>
        <time>2025-02-10T15:24:44Z</time>
      </trkpt>
      <trkpt lat="43.44003" lon="6.63304">
        <ele>54.7</ele>
        <time>2025-02-10T15:24:54Z</time>
      </trkpt>
      <trkpt lat="43.44003" lon="6.63316">
        <ele>54.9</ele>
        <time>2025-02-10T15:25:03Z</time>
      </trkpt>
      <trkpt lat="43.43998" lon="6.63327">
        <ele>55.5</ele>
        <time>2025-02-10T15:25:20Z</time>
      </trkpt>
      <trkpt lat="43.43999" lon="6.6334">
        <ele>55.6</ele>
        <time>2025-02-10T15:25:37Z</time>
      </trkpt>
      <trkpt lat="43.43996" lon="6.63352">
        <ele>55.6</ele>
        <time>2025-02-10T15:25:47Z</time>
      </trkpt>
      <trkpt lat="43.43994" lon="6.63365">
        <ele>55.6</ele>
        <time>2025-02-10T15:25:58Z</time>
      </trkpt>
      <trkpt lat="43.43994" lon="6.63378">
        <ele>55.6</ele>
        <time>2025-02-10T15:26:10Z</time>
      </trkpt>
      <trkpt lat="43.43992" lon="6.63391">
        <ele>55.7</ele>
        <time>2025-02-10T15:26:25Z</time>
      </trkpt>
      <trkpt lat="43.43996" lon="6.63402">
        <ele>55.4</ele>
        <time>2025-02-10T15:26:42Z</time>
      </trkpt>
      <trkpt lat="43.43998" lon="6.63415">
        <ele>55.1</ele>
        <time>2025-02-10T15:26:54Z</time>
      </trkpt>
      <trkpt lat="43.44003" lon="6.63427">
        <ele>54.6</ele>
        <time>2025-02-10T15:27:05Z</time>
      </trkpt>
      <trkpt lat="43.44012" lon="6.6343">
        <ele>54.1</ele>
        <time>2025-02-10T15:27:16Z</time>
      </trkpt>
      <trkpt lat="43.44021" lon="6.6343">
        <ele>53.7</ele>
        <time>2025-02-10T15:28:20Z</time>
      </trkpt>
      <trkpt lat="43.44028" lon="6.63433">
        <ele>53.9</ele>
        <time>2025-02-10T15:32:03Z</time>
      </trkpt>
    </trkseg>
  </trk>
</gpx>